KL1715 / PH-NXD 7700 Squawk Report (1st of December, 2021)

Time Lat Lon Altitude Heading Speed Vertical Rate
2021-12-01 21:31:20 GMT 47.119125 -1.636551 800 26 139 -768
2021-12-01 21:31:18 GMT 47.118080 -1.637315 825 26 139 -768
2021-12-01 21:31:08 GMT 47.111656 -1.642174 950 28 138 -832
2021-12-01 21:30:56 GMT 47.105988 -1.646645 1,100 28 137 -768
2021-12-01 21:30:31 GMT 47.091919 -1.657316 1,375 27 136 -768
2021-12-01 21:30:27 GMT 47.089142 -1.659416 1,450 27 137 -832
2021-12-01 21:30:17 GMT 47.083557 -1.663605 1,575 27 144 -704
2021-12-01 21:30:06 GMT 47.076691 -1.668892 1,750 27 154 -1024
2021-12-01 21:29:56 GMT 47.070740 -1.673355 1,900 27 161 -1024
2021-12-01 21:29:47 GMT 47.063965 -1.678574 2,050 27 171 -896
2021-12-01 21:29:36 GMT 47.056351 -1.684289 2,225 27 175 -1024
2021-12-01 21:29:32 GMT 47.053185 -1.686753 2,300 27 177 -1024
2021-12-01 21:29:26 GMT 47.049225 -1.689697 2,375 27 178 -1024
2021-12-01 21:29:21 GMT 47.045647 -1.692458 2,475 27 178 -1024
2021-12-01 21:29:16 GMT 47.041504 -1.695627 2,575 27 178 -1088
2021-12-01 21:29:11 GMT 47.038288 -1.698022 2,650 27 178 -1088
2021-12-01 21:29:05 GMT 47.033821 -1.701402 2,750 27 179 -1152
2021-12-01 21:29:01 GMT 47.030609 -1.703867 2,825 27 179 -1088
2021-12-01 21:28:55 GMT 47.026138 -1.707247 2,950 27 180 -1024
2021-12-01 21:28:50 GMT 47.023041 -1.709610 3,000 27 181 -960
2021-12-01 21:28:47 GMT 47.020786 -1.711332 3,050 27 181 -960
2021-12-01 21:28:44 GMT 47.018600 -1.713043 3,100 27 182 -704
2021-12-01 21:28:40 GMT 47.015385 -1.715487 3,125 27 185 -448
2021-12-01 21:28:35 GMT 47.010956 -1.718880 3,175 27 189 -192
2021-12-01 21:28:30 GMT 47.007332 -1.721614 3,175 27 194 -64
2021-12-01 21:28:26 GMT 47.004494 -1.723797 3,175 27 199 -64
2021-12-01 21:28:20 GMT 46.999233 -1.727882 3,175 27 200 128
2021-12-01 21:28:14 GMT 46.994343 -1.731685 3,150 28 198 256
2021-12-01 21:28:09 GMT 46.990761 -1.734502 3,150 28 200 64
2021-12-01 21:28:06 GMT 46.988297 -1.736458 3,150 28 201 0
2021-12-01 21:27:59 GMT 46.982101 -1.741263 3,150 28 209 -128
2021-12-01 21:27:53 GMT 46.976761 -1.745453 3,150 27 213 -64
2021-12-01 21:27:46 GMT 46.971039 -1.749641 3,150 24 221 0
2021-12-01 21:27:43 GMT 46.967857 -1.751826 3,150 23 223 0
2021-12-01 21:27:36 GMT 46.960781 -1.755841 3,150 17 230 -128
2021-12-01 21:27:33 GMT 46.957989 -1.757179 3,150 17 230 -64
2021-12-01 21:27:28 GMT 46.952866 -1.759529 3,150 18 235 128
2021-12-01 21:27:25 GMT 46.949699 -1.761263 3,150 22 239 -64
2021-12-01 21:27:21 GMT 46.945744 -1.764221 3,150 33 246 128
2021-12-01 21:27:18 GMT 46.942764 -1.767461 3,150 41 250 128
2021-12-01 21:27:15 GMT 46.940277 -1.770996 3,150 48 254 64
2021-12-01 21:27:12 GMT 46.938389 -1.774362 3,150 53 256 -64
2021-12-01 21:27:06 GMT 46.935059 -1.783424 3,150 66 260 -128
2021-12-01 21:27:01 GMT 46.932861 -1.792831 3,175 72 263 -128
2021-12-01 21:26:58 GMT 46.931351 -1.799561 3,175 72 264 -64
2021-12-01 21:26:54 GMT 46.930481 -1.803680 3,175 72 264 0
2021-12-01 21:26:47 GMT 46.927681 -1.816265 3,175 72 265 -128
2021-12-01 21:26:44 GMT 46.926727 -1.820709 3,175 72 265 -192
2021-12-01 21:26:34 GMT 46.923065 -1.837807 3,225 72 265 -576
2021-12-01 21:26:30 GMT 46.921444 -1.845703 3,275 72 265 -832
2021-12-01 21:26:24 GMT 46.919312 -1.855659 3,400 72 263 -1664
2021-12-01 21:26:20 GMT 46.917534 -1.864225 3,550 72 264 -2048
2021-12-01 21:26:14 GMT 46.915627 -1.873099 3,725 72 264 -2048
2021-12-01 21:26:11 GMT 46.914551 -1.878250 3,825 73 265 -1984
2021-12-01 21:26:07 GMT 46.912857 -1.886490 4,000 73 266 -1984
2021-12-01 21:26:03 GMT 46.911808 -1.891620 4,100 73 266 -2048
2021-12-01 21:25:59 GMT 46.910339 -1.898712 4,225 73 266 -2048
2021-12-01 21:25:56 GMT 46.909386 -1.903311 4,325 73 266 -2048
2021-12-01 21:25:53 GMT 46.908234 -1.909218 4,425 73 267 -2048
2021-12-01 21:25:50 GMT 46.906780 -1.916340 4,575 74 266 -1984
2021-12-01 21:25:46 GMT 46.905804 -1.921340 4,675 74 267 -1920
2021-12-01 21:25:43 GMT 46.904873 -1.926763 4,775 77 268 -1920
2021-12-01 21:25:39 GMT 46.903893 -1.934087 4,900 81 270 -1984
2021-12-01 21:25:35 GMT 46.903381 -1.940254 5,000 85 271 -1984
2021-12-01 21:25:32 GMT 46.903198 -1.945404 5,100 88 274 -1920
2021-12-01 21:25:26 GMT 46.903053 -1.958383 5,325 89 275 -1856
2021-12-01 21:25:22 GMT 46.903015 -1.964699 5,425 89 275 -1792
2021-12-01 21:25:15 GMT 46.902924 -1.977333 5,625 89 277 -1792
2021-12-01 21:25:11 GMT 46.902870 -1.984441 5,725 89 277 -1856
2021-12-01 21:25:04 GMT 46.902775 -1.997188 5,925 89 278 -1792
2021-12-01 21:25:01 GMT 46.902729 -2.003033 6,025 89 279 -1728
2021-12-01 21:24:55 GMT 46.902637 -2.015991 6,225 89 280 -1728
2021-12-01 21:24:51 GMT 46.902603 -2.022377 6,325 89 280 -1664
2021-12-01 21:24:45 GMT 46.902466 -2.036041 6,500 89 282 -1600
2021-12-01 21:24:40 GMT 46.902420 -2.043663 6,600 89 283 -1472
2021-12-01 21:24:34 GMT 46.902309 -2.054795 6,750 89 285 -1344
2021-12-01 21:24:30 GMT 46.902264 -2.061768 6,825 89 287 -1344
2021-12-01 21:24:26 GMT 46.902191 -2.071404 6,925 89 288 -1408
2021-12-01 21:24:23 GMT 46.902172 -2.075500 6,975 89 288 -1408
2021-12-01 21:24:20 GMT 46.902191 -2.082321 7,075 89 289 -1472
2021-12-01 21:24:13 GMT 46.902145 -2.094818 7,225 89 289 -1472
2021-12-01 21:24:10 GMT 46.902145 -2.102440 7,325 90 289 -1536
2021-12-01 21:24:04 GMT 46.902145 -2.114868 7,475 90 289 -1472
2021-12-01 21:23:59 GMT 46.902218 -2.122474 7,575 91 290 -1408
2021-12-01 21:23:56 GMT 46.902374 -2.129013 7,650 93 290 -1536
2021-12-01 21:23:53 GMT 46.902729 -2.135010 7,750 97 292 -1664
2021-12-01 21:23:49 GMT 46.903614 -2.142827 7,850 102 293 -1664
2021-12-01 21:23:46 GMT 46.904823 -2.149729 7,950 105 295 -1600
2021-12-01 21:23:43 GMT 46.905899 -2.154694 8,000 108 295 -1536
2021-12-01 21:23:39 GMT 46.907524 -2.161912 8,100 108 296 -1408
2021-12-01 21:23:36 GMT 46.908875 -2.167603 8,175 108 296 -1280
2021-12-01 21:23:32 GMT 46.910362 -2.174025 8,250 108 296 -1280
2021-12-01 21:23:28 GMT 46.912228 -2.182265 8,350 108 297 -1280
2021-12-01 21:23:23 GMT 46.914963 -2.194244 8,475 108 298 -1344
2021-12-01 21:23:16 GMT 46.917709 -2.206467 8,625 107 298 -1344
2021-12-01 21:23:12 GMT 46.919220 -2.213402 8,700 107 299 -1280
2021-12-01 21:23:06 GMT 46.921783 -2.225006 8,825 107 301 -1088
2021-12-01 21:23:02 GMT 46.923477 -2.232765 8,900 107 302 -1024
2021-12-01 21:22:56 GMT 46.926178 -2.245193 9,000 107 304 -832
2021-12-01 21:22:51 GMT 46.927917 -2.253090 9,050 107 306 -576
2021-12-01 21:22:45 GMT 46.930618 -2.265518 9,100 107 310 -384
2021-12-01 21:22:41 GMT 46.932404 -2.273758 9,125 107 313 -384
2021-12-01 21:22:37 GMT 46.937363 -2.296283 9,175 107 319 -384
2021-12-01 21:22:31 GMT 46.937363 -2.296283 9,200 107 322 -320
2021-12-01 21:22:24 GMT 46.940231 -2.309326 9,225 107 328 -448
2021-12-01 21:22:20 GMT 46.941925 -2.316948 9,250 107 334 -512
2021-12-01 21:22:16 GMT 46.943985 -2.326355 9,275 108 335 -576
2021-12-01 21:22:13 GMT 46.945175 -2.331573 9,300 108 339 -576
2021-12-01 21:22:10 GMT 46.947605 -2.342482 9,350 108 341 -576
2021-12-01 21:22:04 GMT 46.949795 -2.352201 9,375 107 354 -1216
2021-12-01 21:22:00 GMT 46.951904 -2.361580 9,425 108 350 -704
2021-12-01 21:21:55 GMT 46.954403 -2.372906 9,700 107 354 -1216
2021-12-01 21:21:50 GMT 46.957008 -2.384808 9,625 107 356 -1856
2021-12-01 21:21:44 GMT 46.959869 -2.398109 9,800 107 358 -2048
2021-12-01 21:21:39 GMT 46.962067 -2.408272 9,950 107 359 -1792
2021-12-01 21:21:34 GMT 46.964951 -2.422073 10,125 107 360 -1728
2021-12-01 21:21:30 GMT 46.967064 -2.432063 10,250 106 362 -1984
2021-12-01 21:21:25 GMT 46.969440 -2.443261 10,425 107 363 -2432
2021-12-01 21:21:19 GMT 46.972187 -2.456430 10,675 107 362 -2816
2021-12-01 21:21:14 GMT 46.974472 -2.467186 10,900 107 360 -3264
2021-12-01 21:21:09 GMT 46.977264 -2.480095 11,250 107 356 -3584
2021-12-01 21:21:05 GMT 46.979691 -2.491081 11,525 107 352 -3264
2021-12-01 21:20:58 GMT 46.982567 -2.504179 11,800 108 351 -2112
2021-12-01 21:20:54 GMT 46.984756 -2.513968 11,900 108 352 -1024
2021-12-01 21:20:48 GMT 46.987518 -2.526375 11,975 108 354 -384
2021-12-01 21:20:43 GMT 46.990433 -2.539462 12,000 107 356 -64
2021-12-01 21:20:38 GMT 46.992531 -2.548758 12,000 107 356 0
2021-12-01 21:20:33 GMT 46.995136 -2.560660 12,000 107 356 64
2021-12-01 21:20:29 GMT 46.997681 -2.572174 12,000 107 357 64
2021-12-01 21:20:22 GMT 47.000748 -2.586044 11,975 107 362 -128
2021-12-01 21:20:18 GMT 47.002991 -2.596207 12,000 107 368 -256
2021-12-01 21:20:12 GMT 47.006077 -2.610239 12,000 107 374 -384
2021-12-01 21:20:08 GMT 47.008358 -2.620944 12,025 107 379 -512
2021-12-01 21:20:04 GMT 47.010544 -2.631294 12,075 107 381 -832
2021-12-01 21:19:57 GMT 47.013748 -2.646126 12,175 107 384 -1536
2021-12-01 21:19:54 GMT 47.016220 -2.657799 12,325 107 385 -2176
2021-12-01 21:19:51 GMT 47.017014 -2.661508 12,375 107 385 -2240
2021-12-01 21:19:47 GMT 47.019157 -2.671438 12,550 107 385 -2688
2021-12-01 21:19:42 GMT 47.022182 -2.685383 12,825 107 383 -3328
2021-12-01 21:19:38 GMT 47.024643 -2.696800 13,075 107 383 -3584
2021-12-01 21:19:30 GMT 47.028465 -2.714891 13,500 106 383 -3584
2021-12-01 21:19:27 GMT 47.029999 -2.722275 13,700 106 383 -3520
2021-12-01 21:19:22 GMT 47.032471 -2.733976 13,975 106 385 -3584
2021-12-01 21:19:19 GMT 47.034286 -2.742779 14,175 107 385 -3584
2021-12-01 21:19:15 GMT 47.035904 -2.750496 14,350 106 392 -3136
2021-12-01 21:19:12 GMT 47.037781 -2.759491 14,575 107 388 -3456
2021-12-01 21:19:06 GMT 47.040985 -2.774597 14,900 107 390 -3456
2021-12-01 21:19:03 GMT 47.042992 -2.784189 15,125 107 391 -3328
2021-12-01 21:18:55 GMT 47.046577 -2.801514 15,475 106 397 -3456
2021-12-01 21:18:54 GMT 47.047230 -2.804542 15,550 106 397 -3456
2021-12-01 21:18:53 GMT 47.047787 -2.807429 15,600 106 397 -3456
2021-12-01 21:18:50 GMT 47.049316 -2.815109 15,750 106 397 -3456
2021-12-01 21:18:47 GMT 47.053482 -2.835777 16,250 106 398 -3712
2021-12-01 21:18:42 GMT 47.053482 -2.835777 16,250 106 398 -3840
2021-12-01 21:18:36 GMT 47.057739 -2.856651 16,725 106 399 -3776
2021-12-01 21:18:34 GMT 47.057739 -2.856651 16,775 106 399 -3776
2021-12-01 21:18:31 GMT 47.059563 -2.865248 16,975 107 399 -3776
2021-12-01 21:18:30 GMT 47.060032 -2.867502 17,050 107 399 -3712
2021-12-01 21:18:29 GMT 47.061100 -2.872643 17,150 107 399 -3584
2021-12-01 21:18:27 GMT 47.062218 -2.877855 17,275 107 400 -3328
2021-12-01 21:18:25 GMT 47.062729 -2.880409 17,325 107 401 -2944
2021-12-01 21:18:22 GMT 47.064407 -2.888207 17,475 107 402 -2816
2021-12-01 21:18:21 GMT 47.064926 -2.890846 17,525 107 402 -2688
2021-12-01 21:18:20 GMT 47.067123 -2.901283 17,675 106 403 -2432
2021-12-01 21:18:17 GMT 47.067123 -2.901283 17,700 107 404 -2176
2021-12-01 21:18:15 GMT 47.068268 -2.906799 17,750 107 406 -1856
2021-12-01 21:18:12 GMT 47.069962 -2.914948 17,850 106 407 -1792
2021-12-01 21:18:11 GMT 47.070549 -2.917574 17,875 106 407 -1792
2021-12-01 21:18:09 GMT 47.071243 -2.921059 17,925 106 407 -1792
2021-12-01 21:18:08 GMT 47.072086 -2.924969 17,975 107 408 -1856
2021-12-01 21:18:07 GMT 47.072571 -2.927376 18,000 107 409 -1792
2021-12-01 21:18:06 GMT 47.073204 -2.930251 18,025 107 409 -1792
2021-12-01 21:18:04 GMT 47.074276 -2.935392 18,100 107 410 -1856
2021-12-01 21:18:03 GMT 47.074860 -2.938225 18,125 107 410 -1920
2021-12-01 21:18:02 GMT 47.075394 -2.940885 18,150 107 410 -1856
2021-12-01 21:18:00 GMT 47.076508 -2.946167 18,225 107 411 -1856
2021-12-01 21:17:58 GMT 47.077744 -2.952026 18,275 107 412 -1856
2021-12-01 21:17:55 GMT 47.079208 -2.958914 18,350 107 412 -1856
2021-12-01 21:17:54 GMT 47.079803 -2.961639 18,400 107 412 -1856
2021-12-01 21:17:53 GMT 47.080444 -2.964798 18,425 107 412 -1856
2021-12-01 21:17:52 GMT 47.081211 -2.968351 18,450 107 412 -1792
2021-12-01 21:17:51 GMT 47.081676 -2.970675 18,500 107 413 -1792
2021-12-01 21:17:49 GMT 47.082840 -2.976027 18,550 107 413 -1792
2021-12-01 21:17:48 GMT 47.083374 -2.978737 18,575 107 413 -1792
2021-12-01 21:17:46 GMT 47.084518 -2.984093 18,650 107 414 -1792
2021-12-01 21:17:45 GMT 47.085075 -2.986732 18,675 107 414 -1792
2021-12-01 21:17:44 GMT 47.086193 -2.992084 18,725 107 415 -1856
2021-12-01 21:17:42 GMT 47.086761 -2.994804 18,775 107 415 -1856
2021-12-01 21:17:41 GMT 47.087219 -2.996933 18,800 107 416 -1856
2021-12-01 21:17:39 GMT 47.088379 -3.002578 18,850 107 416 -1856
2021-12-01 21:17:38 GMT 47.089127 -3.006099 18,900 106 416 -1856
2021-12-01 21:17:37 GMT 47.089691 -3.008812 18,925 107 417 -1856
2021-12-01 21:17:35 GMT 47.090240 -3.011522 18,950 107 417 -1856
2021-12-01 21:17:32 GMT 47.092709 -3.023423 19,100 106 418 -1856
2021-12-01 21:17:30 GMT 47.093033 -3.024811 19,100 106 418 -1792
2021-12-01 21:17:29 GMT 47.093536 -3.027214 19,125 106 418 -1792
2021-12-01 21:17:28 GMT 47.094864 -3.033669 19,200 107 419 -1792
2021-12-01 21:17:25 GMT 47.096008 -3.039093 19,275 107 419 -1792
2021-12-01 21:17:23 GMT 47.097271 -3.045114 19,325 107 420 -1856
2021-12-01 21:17:22 GMT 47.097736 -3.047298 19,350 107 420 -1856
2021-12-01 21:17:21 GMT 47.098389 -3.050537 19,400 107 420 -1856
2021-12-01 21:17:19 GMT 47.099442 -3.055435 19,450 107 420 -1856
2021-12-01 21:17:17 GMT 47.100670 -3.061453 19,500 107 421 -1856
2021-12-01 21:17:16 GMT 47.101273 -3.064156 19,550 107 421 -1856
2021-12-01 21:17:13 GMT 47.102646 -3.070679 19,625 107 422 -1856
2021-12-01 21:17:11 GMT 47.103695 -3.075608 19,650 107 422 -1856
2021-12-01 21:17:09 GMT 47.105164 -3.082764 19,725 107 422 -1792
2021-12-01 21:17:07 GMT 47.105976 -3.086595 19,775 107 423 -1856
2021-12-01 21:17:06 GMT 47.106537 -3.089287 19,825 107 423 -1856
2021-12-01 21:17:04 GMT 47.108257 -3.097581 19,900 106 424 -1856
2021-12-01 21:17:02 GMT 47.109142 -3.101947 19,950 106 425 -1920
2021-12-01 21:17:00 GMT 47.110306 -3.107441 20,025 106 425 -1920
2021-12-01 21:16:58 GMT 47.111656 -3.114061 20,100 106 425 -1920
2021-12-01 21:16:57 GMT 47.112030 -3.115723 20,100 106 426 -1792
2021-12-01 21:16:56 GMT 47.112587 -3.118497 20,150 106 426 -1792
2021-12-01 21:16:55 GMT 47.113705 -3.123991 20,200 106 426 -1728
2021-12-01 21:16:53 GMT 47.114319 -3.126778 20,225 106 426 -1728
2021-12-01 21:16:52 GMT 47.116032 -3.135047 20,300 107 426 -1984
2021-12-01 21:16:50 GMT 47.116032 -3.135047 20,325 107 426 -2048
2021-12-01 21:16:49 GMT 47.116608 -3.137833 20,350 107 426 -2112
2021-12-01 21:16:48 GMT 47.117981 -3.144424 20,450 107 426 -2304
2021-12-01 21:16:45 GMT 47.119709 -3.152724 20,575 107 425 -2688
2021-12-01 21:16:43 GMT 47.120316 -3.155479 20,600 107 425 -2752
2021-12-01 21:16:42 GMT 47.120872 -3.158217 20,650 107 426 -2880
2021-12-01 21:16:40 GMT 47.122036 -3.163781 20,750 107 426 -3008
2021-12-01 21:16:39 GMT 47.123199 -3.169274 20,850 107 427 -3072
2021-12-01 21:16:37 GMT 47.123619 -3.171528 20,900 107 427 -3136
2021-12-01 21:16:35 GMT 47.125626 -3.180954 21,075 107 427 -3200
2021-12-01 21:16:33 GMT 47.126228 -3.183711 21,125 107 428 -3200
2021-12-01 21:16:32 GMT 47.126694 -3.185894 21,175 107 429 -3200
2021-12-01 21:16:30 GMT 47.128555 -3.194838 21,300 107 429 -3136
2021-12-01 21:16:29 GMT 47.128555 -3.194838 21,325 107 429 -3136
2021-12-01 21:16:28 GMT 47.129608 -3.199837 21,425 107 430 -3072
2021-12-01 21:16:26 GMT 47.130184 -3.202585 21,475 107 430 -3072
2021-12-01 21:16:25 GMT 47.130798 -3.205399 21,525 107 430 -3072
2021-12-01 21:16:24 GMT 47.131989 -3.210960 21,625 107 431 -3072
2021-12-01 21:16:22 GMT 47.132557 -3.213712 21,675 107 431 -3072
2021-12-01 21:16:21 GMT 47.133953 -3.220403 21,775 107 432 -3008
2021-12-01 21:16:19 GMT 47.134552 -3.223251 21,850 107 432 -3008
2021-12-01 21:16:18 GMT 47.135166 -3.226037 21,875 107 432 -3008
2021-12-01 21:16:16 GMT 47.136330 -3.231600 22,000 107 433 -3008
2021-12-01 21:16:15 GMT 47.136658 -3.233345 22,025 107 433 -3008
2021-12-01 21:16:13 GMT 47.137848 -3.238907 22,125 107 433 -3072
2021-12-01 21:16:12 GMT 47.138424 -3.241741 22,175 107 433 -3072
2021-12-01 21:16:11 GMT 47.139633 -3.247375 22,275 106 434 -3072
2021-12-01 21:16:08 GMT 47.140797 -3.253010 22,375 106 434 -3072
2021-12-01 21:16:06 GMT 47.142059 -3.259232 22,450 106 435 -3072
2021-12-01 21:16:05 GMT 47.142563 -3.261429 22,525 106 435 -3072
2021-12-01 21:16:04 GMT 47.143124 -3.264278 22,575 106 436 -3136
2021-12-01 21:16:03 GMT 47.144623 -3.271660 22,700 106 436 -3136
2021-12-01 21:16:01 GMT 47.144897 -3.272758 22,725 106 436 -3200
2021-12-01 21:16:00 GMT 47.146152 -3.278996 22,850 106 437 -3328
2021-12-01 21:15:58 GMT 47.146729 -3.281891 22,900 106 437 -3392
2021-12-01 21:15:56 GMT 47.147873 -3.287521 23,025 106 437 -3456
2021-12-01 21:15:55 GMT 47.148479 -3.290405 23,075 106 437 -3520
2021-12-01 21:15:54 GMT 47.149063 -3.293221 23,125 106 437 -3520
2021-12-01 21:15:51 GMT 47.150806 -3.301744 23,300 106 438 -3648
2021-12-01 21:15:50 GMT 47.151581 -3.305717 23,400 106 438 -3712
2021-12-01 21:15:47 GMT 47.152855 -3.312026 23,525 106 438 -3776
2021-12-01 21:15:46 GMT 47.154373 -3.319382 23,700 106 439 -3840
2021-12-01 21:15:44 GMT 47.154949 -3.322237 23,775 106 440 -3840
2021-12-01 21:15:42 GMT 47.156113 -3.327942 23,875 106 440 -3776
2021-12-01 21:15:40 GMT 47.156708 -3.330849 23,925 106 440 -3712
2021-12-01 21:15:39 GMT 47.157852 -3.336548 24,075 106 441 -3584
2021-12-01 21:15:37 GMT 47.158440 -3.339421 24,125 106 441 -3520
2021-12-01 21:15:36 GMT 47.159042 -3.342316 24,175 106 442 -3456
2021-12-01 21:15:35 GMT 47.160461 -3.349182 24,300 106 443 -3392
2021-12-01 21:15:32 GMT 47.161049 -3.352098 24,375 106 443 -3328
2021-12-01 21:15:31 GMT 47.161747 -3.355549 24,425 106 444 -3328
2021-12-01 21:15:29 GMT 47.163143 -3.362450 24,575 106 445 -3392
2021-12-01 21:15:28 GMT 47.163757 -3.365387 24,625 106 445 -3392
2021-12-01 21:15:27 GMT 47.165516 -3.374070 24,800 106 447 -3456
2021-12-01 21:15:25 GMT 47.165516 -3.374070 24,800 106 447 -3520
2021-12-01 21:15:24 GMT 47.166092 -3.376991 24,850 106 447 -3520
2021-12-01 21:15:22 GMT 47.167328 -3.382759 24,975 106 447 -3584
2021-12-01 21:15:21 GMT 47.168125 -3.386817 25,075 106 448 -3712
2021-12-01 21:15:19 GMT 47.169102 -3.391536 25,175 106 448 -3712
2021-12-01 21:15:18 GMT 47.169937 -3.395599 25,250 106 449 -3712
2021-12-01 21:15:16 GMT 47.171127 -3.401436 25,375 106 450 -3712
2021-12-01 21:15:15 GMT 47.172318 -3.407272 25,500 106 450 -3648
2021-12-01 21:15:12 GMT 47.173386 -3.412593 25,600 106 451 -3584
2021-12-01 21:15:11 GMT 47.173965 -3.415512 25,650 106 452 -3584
2021-12-01 21:15:10 GMT 47.175201 -3.421417 25,775 106 453 -3456
2021-12-01 21:15:08 GMT 47.175758 -3.424354 25,825 106 454 -3456
2021-12-01 21:15:07 GMT 47.176735 -3.429072 25,900 106 454 -3456
2021-12-01 21:15:04 GMT 47.178181 -3.436115 26,050 106 455 -3456
2021-12-01 21:15:03 GMT 47.179001 -3.440300 26,125 106 456 -3392
2021-12-01 21:14:59 GMT 47.181297 -3.451609 26,300 106 457 -3456
2021-12-01 21:14:58 GMT 47.181885 -3.454582 26,400 106 458 -3456
2021-12-01 21:14:57 GMT 47.182510 -3.457595 26,450 106 459 -3456
2021-12-01 21:14:54 GMT 47.184464 -3.467102 26,625 106 461 -3392
2021-12-01 21:14:53 GMT 47.185162 -3.470764 26,700 106 461 -3456
2021-12-01 21:14:51 GMT 47.186279 -3.476143 26,800 106 462 -3456
2021-12-01 21:14:50 GMT 47.187012 -3.479713 26,850 106 463 -3520
2021-12-01 21:14:49 GMT 47.187469 -3.482185 26,925 106 463 -3520
2021-12-01 21:14:47 GMT 47.188705 -3.488159 27,025 106 464 -3648
2021-12-01 21:14:44 GMT 47.191772 -3.503301 28,100 106 467 -3584
2021-12-01 21:14:42 GMT 47.191772 -3.503301 27,475 106 467 -3584
2021-12-01 21:14:39 GMT 47.193729 -3.513019 27,525 106 468 -3584
2021-12-01 21:14:37 GMT 47.195217 -3.520343 27,675 106 469 -3712
2021-12-01 21:14:35 GMT 47.196579 -3.527023 27,825 106 470 -4544
2021-12-01 21:14:33 GMT 47.197220 -3.530062 27,900 106 470 -4544
2021-12-01 21:14:32 GMT 47.197685 -3.532527 27,950 106 470 -4544
2021-12-01 21:14:31 GMT 47.198547 -3.536842 28,050 106 469 -4864
2021-12-01 21:14:29 GMT 47.199554 -3.541718 28,175 106 469 -4864
2021-12-01 21:14:27 GMT 47.201130 -3.549640 28,400 106 469 -4928
2021-12-01 21:14:25 GMT 47.201874 -3.553302 28,500 106 469 -4864
2021-12-01 21:14:24 GMT 47.203365 -3.560627 28,675 106 469 -4736
2021-12-01 21:14:22 GMT 47.204956 -3.568565 28,875 106 469 -4544
2021-12-01 21:14:19 GMT 47.207703 -3.581955 29,150 106 469 -4544
2021-12-01 21:14:16 GMT 47.207703 -3.581955 29,525 106 468 -4608
2021-12-01 21:14:12 GMT 47.210861 -3.597816 30,000 106 468 -4288
2021-12-01 21:14:09 GMT 47.213886 -3.613093 30,000 106 468 -4288
2021-12-01 21:14:06 GMT 47.213886 -3.613093 30,000 106 468 -3968
2021-12-01 21:14:03 GMT 47.217098 -3.628939 30,350 106 468 -3968
2021-12-01 21:14:01 GMT 47.217098 -3.628939 30,350 106 468 -3968
2021-12-01 21:14:00 GMT 47.218414 -3.635651 30,500 106 468 -4032
2021-12-01 21:13:57 GMT 47.219284 -3.639925 30,575 106 469 -3968
2021-12-01 21:13:56 GMT 47.219650 -3.641762 30,600 106 469 -3968
2021-12-01 21:13:55 GMT 47.220154 -3.644165 30,675 106 470 -3712
2021-12-01 21:13:52 GMT 47.221752 -3.652109 30,850 106 470 -3712
2021-12-01 21:13:49 GMT 47.224499 -3.665560 31,250 106 471 -3392
2021-12-01 21:13:46 GMT 47.225941 -3.672955 31,250 106 472 -3328
2021-12-01 21:13:45 GMT 47.226688 -3.676617 31,300 106 472 -3392
2021-12-01 21:13:43 GMT 47.227798 -3.682137 31,425 106 473 -3456
2021-12-01 21:13:42 GMT 47.228455 -3.685209 31,475 106 473 -3520
2021-12-01 21:13:41 GMT 47.229034 -3.688316 31,550 106 473 -3520
2021-12-01 21:13:39 GMT 47.231388 -3.700069 31,775 106 474 -3712
2021-12-01 21:13:37 GMT 47.231388 -3.700069 31,775 106 474 -3776
2021-12-01 21:13:35 GMT 47.233017 -3.708092 31,950 106 474 -3968
2021-12-01 21:13:32 GMT 47.234985 -3.717979 32,150 106 474 -4032
2021-12-01 21:13:29 GMT 47.236603 -3.725985 32,325 106 475 -3776
2021-12-01 21:13:28 GMT 47.236835 -3.727253 32,350 106 475 -3776
2021-12-01 21:13:26 GMT 47.238323 -3.734647 32,500 106 475 -3584
2021-12-01 21:13:25 GMT 47.238968 -3.737755 32,550 106 475 -3584
2021-12-01 21:13:23 GMT 47.240326 -3.744577 32,675 106 475 -3392
2021-12-01 21:13:20 GMT 47.242172 -3.753822 32,800 106 475 -3392
2021-12-01 21:13:17 GMT 47.243866 -3.762543 33,025 106 475 -3392
2021-12-01 21:13:13 GMT 47.246471 -3.775564 33,250 106 478 -3264
2021-12-01 21:13:12 GMT 47.247070 -3.778679 33,300 106 478 -3264
2021-12-01 21:13:11 GMT 47.247726 -3.781762 33,350 106 478 -3264
2021-12-01 21:13:08 GMT 47.249451 -3.790494 33,500 106 478 -3200
2021-12-01 21:13:07 GMT 47.249962 -3.793030 33,675 106 479 -3200
2021-12-01 21:13:05 GMT 47.251328 -3.799828 33,675 106 479 -3200
2021-12-01 21:13:03 GMT 47.252991 -3.807960 33,800 106 480 -3072
2021-12-01 21:12:59 GMT 47.255222 -3.819228 34,000 106 480 -2880
2021-12-01 21:12:57 GMT 47.256481 -3.825496 34,100 106 480 -2880
2021-12-01 21:12:55 GMT 47.257736 -3.831764 34,200 106 481 -2880
2021-12-01 21:12:54 GMT 47.258377 -3.834915 34,225 106 481 -2880
2021-12-01 21:12:53 GMT 47.258995 -3.838031 34,275 106 481 -2880
2021-12-01 21:12:50 GMT 47.260895 -3.847412 34,425 106 482 -2880
2021-12-01 21:12:49 GMT 47.261787 -3.851835 34,500 106 483 -2816
2021-12-01 21:12:47 GMT 47.263138 -3.858742 34,600 106 483 -2816
2021-12-01 21:12:45 GMT 47.264023 -3.863173 34,775 106 484 -2944
2021-12-01 21:12:43 GMT 47.265656 -3.871376 34,800 106 484 -3008
2021-12-01 21:12:42 GMT 47.266388 -3.875153 34,850 106 484 -3136
2021-12-01 21:12:39 GMT 47.268173 -3.884010 35,000 106 484 -3136
2021-12-01 21:12:36 GMT 47.269283 -3.889724 35,125 106 484 -3200
2021-12-01 21:12:35 GMT 47.270260 -3.894724 35,200 106 484 -3264
2021-12-01 21:12:31 GMT 47.272541 -3.906133 35,525 106 483 -3392
2021-12-01 21:12:29 GMT 47.274029 -3.913668 35,550 106 483 -3584
2021-12-01 21:12:28 GMT 47.274673 -3.916832 35,600 106 482 -3776
2021-12-01 21:12:27 GMT 47.275520 -3.921204 35,700 106 482 -3776
2021-12-01 21:12:24 GMT 47.277420 -3.930634 35,900 106 481 -4032
2021-12-01 21:12:22 GMT 47.278656 -3.936951 36,025 106 480 -4160
2021-12-01 21:12:20 GMT 47.281128 -3.949448 36,250 106 479 -4224
2021-12-01 21:12:18 GMT 47.281128 -3.949448 36,300 106 479 -4160
2021-12-01 21:12:17 GMT 47.283436 -3.961276 36,550 106 476 -3840
2021-12-01 21:12:14 GMT 47.283436 -3.961276 36,550 106 476 -3840
2021-12-01 21:12:13 GMT 47.285389 -3.971205 36,700 106 475 -3584
2021-12-01 21:12:11 GMT 47.285389 -3.971205 36,750 106 475 -3584
2021-12-01 21:12:08 GMT 47.287216 -3.980484 36,925 106 474 -3200
2021-12-01 21:12:07 GMT 47.287857 -3.983600 36,975 106 474 -3136
2021-12-01 21:12:06 GMT 47.289642 -3.992912 37,100 106 474 -2816
2021-12-01 21:12:04 GMT 47.289642 -3.992912 37,125 106 474 -2816
2021-12-01 21:12:02 GMT 47.290878 -3.999092 37,225 106 473 -2688
2021-12-01 21:12:01 GMT 47.291489 -4.002193 37,250 106 473 -2688
2021-12-01 21:11:59 GMT 47.292698 -4.008320 37,350 106 473 -2688
2021-12-01 21:11:57 GMT 47.293579 -4.012688 37,425 106 473 -2816
2021-12-01 21:11:56 GMT 47.295166 -4.020714 37,550 106 473 -3072
2021-12-01 21:11:54 GMT 47.295776 -4.023811 37,600 106 473 -3200
2021-12-01 21:11:53 GMT 47.296097 -4.025644 37,625 106 473 -3264
2021-12-01 21:11:51 GMT 47.297585 -4.033039 37,775 106 472 -3456
2021-12-01 21:11:50 GMT 47.298203 -4.036171 37,825 106 472 -3520
2021-12-01 21:11:47 GMT 47.299896 -4.044754 37,975 106 470 -3584
2021-12-01 21:11:46 GMT 47.300518 -4.047828 38,050 106 470 -3520
2021-12-01 21:11:44 GMT 47.301727 -4.053955 38,150 106 469 -3328
2021-12-01 21:11:43 GMT 47.302322 -4.057045 38,200 106 469 -3200
2021-12-01 21:11:41 GMT 47.303787 -4.064392 38,300 106 468 -2880
2021-12-01 21:11:39 GMT 47.305206 -4.071739 38,425 105 468 -2304
2021-12-01 21:11:37 GMT 47.306168 -4.076614 38,475 105 468 -2112
2021-12-01 21:11:36 GMT 47.306625 -4.079086 38,500 105 468 -1984
2021-12-01 21:11:33 GMT 47.308201 -4.086984 38,575 105 467 -1792
2021-12-01 21:11:32 GMT 47.308777 -4.090073 38,600 105 467 -1664
2021-12-01 21:11:31 GMT 47.309597 -4.094309 38,650 105 468 -1600
2021-12-01 21:11:30 GMT 47.310341 -4.097971 38,675 105 468 -1536
2021-12-01 21:11:28 GMT 47.311386 -4.103531 38,700 105 468 -1536
2021-12-01 21:11:27 GMT 47.312119 -4.107170 38,750 105 468 -1472
2021-12-01 21:11:26 GMT 47.312714 -4.110225 38,775 105 468 -1344
2021-12-01 21:11:24 GMT 47.313877 -4.116352 38,825 105 468 -1280
2021-12-01 21:11:22 GMT 47.315090 -4.122408 38,850 105 468 -1216
2021-12-01 21:11:21 GMT 47.315460 -4.124268 38,875 105 468 -1152
2021-12-01 21:11:20 GMT 47.316299 -4.128535 38,900 105 468 -1088
2021-12-01 21:11:19 GMT 47.318298 -4.138962 38,950 105 468 -960
2021-12-01 21:11:16 GMT 47.318298 -4.138962 38,950 105 468 -896
2021-12-01 21:11:15 GMT 47.319260 -4.143837 38,950 105 468 -704
2021-12-01 21:11:14 GMT 47.319839 -4.146916 38,975 105 468 -640
2021-12-01 21:11:13 GMT 47.320450 -4.149948 38,975 105 468 -512
2021-12-01 21:11:11 GMT 47.321640 -4.156059 39,000 105 469 -384
2021-12-01 21:11:10 GMT 47.322212 -4.159170 39,000 105 469 -320
2021-12-01 21:11:09 GMT 47.322830 -4.162170 39,000 105 469 -256
2021-12-01 21:11:06 GMT 47.324478 -4.170753 39,000 105 469 -64
2021-12-01 21:11:05 GMT 47.325794 -4.177481 39,000 105 469 -64
2021-12-01 21:11:03 GMT 47.326401 -4.180573 39,000 105 469 -64
2021-12-01 21:11:02 GMT 47.327087 -4.184280 39,000 105 469 -64
2021-12-01 21:11:01 GMT 47.328278 -4.190392 39,025 105 468 -64
2021-12-01 21:10:59 GMT 47.328506 -4.191628 39,025 105 468 -64
2021-12-01 21:10:58 GMT 47.329334 -4.195932 39,000 105 468 0
2021-12-01 21:10:57 GMT 47.331116 -4.205086 39,000 105 468 64
2021-12-01 21:10:55 GMT 47.331116 -4.205086 39,000 105 468 64
2021-12-01 21:10:54 GMT 47.332306 -4.211197 39,000 105 468 64
2021-12-01 21:10:51 GMT 47.333153 -4.215510 39,000 105 468 128
2021-12-01 21:10:50 GMT 47.334084 -4.220370 39,000 105 468 128
2021-12-01 21:10:49 GMT 47.335247 -4.226497 39,000 105 468 64
2021-12-01 21:10:47 GMT 47.335758 -4.228962 39,000 105 468 64
2021-12-01 21:10:46 GMT 47.336922 -4.235089 39,000 105 468 0
2021-12-01 21:10:43 GMT 47.337753 -4.239418 39,000 105 468 -64
2021-12-01 21:10:42 GMT 47.338318 -4.242483 39,000 105 468 -64
2021-12-01 21:10:39 GMT 47.339859 -4.250473 39,000 105 468 -64
2021-12-01 21:10:38 GMT 47.341160 -4.257202 39,000 105 468 -128
2021-12-01 21:10:36 GMT 47.341736 -4.260223 39,000 105 468 -128
2021-12-01 21:10:33 GMT 47.343487 -4.269456 39,000 105 468 -64
2021-12-01 21:10:32 GMT 47.344070 -4.272514 39,025 105 468 0
2021-12-01 21:10:30 GMT 47.345116 -4.278048 39,025 105 467 64
2021-12-01 21:10:29 GMT 47.345814 -4.281710 39,025 105 467 64
2021-12-01 21:10:28 GMT 47.346405 -4.284737 39,025 105 467 128
2021-12-01 21:10:27 GMT 47.347595 -4.290848 39,000 105 467 128
2021-12-01 21:10:25 GMT 47.348053 -4.293320 39,000 105 467 128
2021-12-01 21:10:23 GMT 47.349243 -4.299431 39,000 105 467 0
2021-12-01 21:10:22 GMT 47.350052 -4.303753 39,000 105 467 -64
2021-12-01 21:10:21 GMT 47.350616 -4.306778 39,000 105 467 -64
2021-12-01 21:10:19 GMT 47.351807 -4.312889 39,000 105 467 -128
2021-12-01 21:10:18 GMT 47.352379 -4.315937 39,000 105 467 -128
2021-12-01 21:10:17 GMT 47.353077 -4.319599 39,000 105 467 -64
2021-12-01 21:10:15 GMT 47.354008 -4.324529 39,000 105 467 -64
2021-12-01 21:10:14 GMT 47.354599 -4.327583 39,000 105 467 -64
2021-12-01 21:10:13 GMT 47.355217 -4.330656 39,000 105 467 -64
2021-12-01 21:10:11 GMT 47.356380 -4.336783 39,025 105 466 -64
2021-12-01 21:10:10 GMT 47.357208 -4.341042 39,025 105 466 -64
2021-12-01 21:10:08 GMT 47.358398 -4.347153 39,025 106 467 -64
2021-12-01 21:10:05 GMT 47.359966 -4.355023 39,025 106 466 64
2021-12-01 21:10:02 GMT 47.362015 -4.365417 39,000 107 466 192
2021-12-01 21:09:59 GMT 47.364075 -4.375031 39,000 108 467 128
2021-12-01 21:09:56 GMT 47.366577 -4.385235 39,000 111 469 -64
2021-12-01 21:09:50 GMT 47.370811 -4.399320 39,000 121 476 -64
2021-12-01 21:09:47 GMT 47.374443 -4.409602 39,025 119 474 -64
2021-12-01 21:09:45 GMT 47.376633 -4.415166 39,025 121 476 -64
2021-12-01 21:09:40 GMT 47.382404 -4.428194 39,025 126 479 0
2021-12-01 21:09:37 GMT 47.386368 -4.436005 39,025 129 480 64
2021-12-01 21:09:34 GMT 47.390305 -4.443077 39,000 130 480 64
2021-12-01 21:09:31 GMT 47.394741 -4.450378 39,000 132 482 64
2021-12-01 21:09:29 GMT 47.397858 -4.455097 39,000 135 483 64
2021-12-01 21:09:26 GMT 47.402756 -4.461891 39,000 137 484 64
2021-12-01 21:09:22 GMT 47.408936 -4.469582 39,000 145 487 64
2021-12-01 21:09:20 GMT 47.414291 -4.475520 39,000 145 487 64
2021-12-01 21:09:17 GMT 47.419506 -4.480802 39,000 146 487 64
2021-12-01 21:09:14 GMT 47.424500 -4.485374 39,000 149 489 64
2021-12-01 21:09:10 GMT 47.433197 -4.492447 39,000 154 490 128
2021-12-01 21:09:07 GMT 47.439339 -4.496718 39,000 156 490 128
2021-12-01 21:09:04 GMT 47.444366 -4.499817 39,000 159 491 -64
2021-12-01 21:08:59 GMT 47.456863 -4.505905 39,000 165 492 -128
2021-12-01 21:08:55 GMT 47.466614 -4.509338 39,000 168 492 0
2021-12-01 21:08:49 GMT 47.479652 -4.512423 39,000 173 493 64
2021-12-01 21:08:46 GMT 47.484604 -4.513252 39,000 174 493 0
2021-12-01 21:08:44 GMT 47.490051 -4.513939 39,000 175 494 -64
2021-12-01 21:08:40 GMT 47.498245 -4.514626 39,000 178 494 -64
2021-12-01 21:08:37 GMT 47.507401 -4.514832 39,000 181 493 -64
2021-12-01 21:08:34 GMT 47.513309 -4.514747 39,000 182 492 -64
2021-12-01 21:08:31 GMT 47.518295 -4.514420 39,000 183 491 0
2021-12-01 21:08:29 GMT 47.522827 -4.514008 39,000 186 489 64
2021-12-01 21:08:26 GMT 47.531418 -4.512846 39,000 187 489 64
2021-12-01 21:08:22 GMT 47.540356 -4.511085 39,000 190 488 64
2021-12-01 21:08:19 GMT 47.547043 -4.509407 39,000 193 486 64
2021-12-01 21:08:16 GMT 47.552307 -4.507896 39,000 193 486 64
2021-12-01 21:08:13 GMT 47.558884 -4.505662 39,000 194 485 64
2021-12-01 21:08:10 GMT 47.567139 -4.502472 39,000 197 485 64
2021-12-01 21:08:07 GMT 47.576523 -4.498146 39,000 200 483 0
2021-12-01 21:08:02 GMT 47.584122 -4.494164 39,000 205 482 -64
2021-12-01 21:08:00 GMT 47.587418 -4.492241 39,000 203 482 -64
2021-12-01 21:07:57 GMT 47.594833 -4.487709 39,000 204 482 -64
2021-12-01 21:07:54 GMT 47.600922 -4.483549 39,000 206 481 0
2021-12-01 21:07:51 GMT 47.605667 -4.480098 39,000 208 481 -64
2021-12-01 21:07:47 GMT 47.621124 -4.467210 39,000 211 478 64
2021-12-01 21:07:43 GMT 47.621124 -4.467210 39,000 212 478 64
2021-12-01 21:07:39 GMT 47.633469 -4.455711 39,000 213 479 0
2021-12-01 21:07:36 GMT 47.633469 -4.455711 39,000 213 479 0
2021-12-01 21:07:31 GMT 47.643219 -4.446648 39,000 213 480 -128
2021-12-01 21:07:28 GMT 47.649170 -4.441017 39,000 213 480 -128
2021-12-01 21:07:25 GMT 47.652924 -4.437515 39,000 213 480 -128
2021-12-01 21:07:22 GMT 47.660431 -4.430443 39,025 213 481 -64
2021-12-01 21:07:19 GMT 47.666840 -4.424462 39,025 213 481 0
2021-12-01 21:07:16 GMT 47.670609 -4.420941 39,025 213 481 0
2021-12-01 21:07:12 GMT 47.678104 -4.413898 39,025 213 481 0
2021-12-01 21:07:08 GMT 47.686752 -4.405792 39,025 213 480 0
2021-12-01 21:07:05 GMT 47.694214 -4.398788 39,000 213 480 64
2021-12-01 21:07:02 GMT 47.697235 -4.395973 39,000 213 480 64
2021-12-01 21:06:58 GMT 47.704697 -4.388901 39,000 213 479 128
2021-12-01 21:06:55 GMT 47.710320 -4.383686 39,000 213 478 128
2021-12-01 21:06:53 GMT 47.715912 -4.378395 39,000 213 478 128
2021-12-01 21:06:49 GMT 47.724106 -4.370705 38,975 213 477 64
2021-12-01 21:06:46 GMT 47.727859 -4.367203 39,000 213 477 64
2021-12-01 21:06:41 GMT 47.737133 -4.358403 39,000 213 476 -64
2021-12-01 21:06:36 GMT 47.746815 -4.349318 39,000 213 476 -64
2021-12-01 21:06:32 GMT 47.761276 -4.335686 39,000 213 476 0
2021-12-01 21:06:28 GMT 47.761276 -4.335686 39,000 213 476 64
2021-12-01 21:06:25 GMT 47.766880 -4.330444 39,000 213 477 -64
2021-12-01 21:06:22 GMT 47.772446 -4.325180 39,000 213 477 0
2021-12-01 21:06:19 GMT 47.778797 -4.319176 39,000 213 477 0
2021-12-01 21:06:16 GMT 47.784756 -4.313542 39,000 213 477 0
2021-12-01 21:06:11 GMT 47.794437 -4.304457 39,000 213 477 -64
2021-12-01 21:06:06 GMT 47.802246 -4.297096 39,000 213 477 -64
2021-12-01 21:06:02 GMT 47.808590 -4.291077 39,000 213 476 64
2021-12-01 21:05:59 GMT 47.815247 -4.284809 39,000 213 476 64
2021-12-01 21:05:56 GMT 47.826420 -4.274245 39,000 213 476 0
2021-12-01 21:05:53 GMT 47.826420 -4.274245 39,000 213 476 -64
2021-12-01 21:05:50 GMT 47.832333 -4.268611 39,000 213 476 -64
2021-12-01 21:05:46 GMT 47.839371 -4.262009 39,000 213 476 -64
2021-12-01 21:05:43 GMT 47.844948 -4.256709 39,000 213 476 0
2021-12-01 21:05:40 GMT 47.850861 -4.251075 39,000 213 476 0
2021-12-01 21:05:36 GMT 47.858688 -4.243744 39,000 213 476 64
2021-12-01 21:05:30 GMT 47.869812 -4.233238 39,000 213 477 0
2021-12-01 21:05:25 GMT 47.879860 -4.223750 39,000 213 477 0
2021-12-01 21:05:22 GMT 47.883587 -4.220229 39,000 213 477 64
2021-12-01 21:05:19 GMT 47.889908 -4.214218 39,000 213 477 64
2021-12-01 21:05:16 GMT 47.895859 -4.208519 39,000 213 479 64
2021-12-01 21:05:12 GMT 47.902588 -4.202202 39,000 213 479 64
2021-12-01 21:05:09 GMT 47.908211 -4.196848 39,000 213 480 -64
2021-12-01 21:05:05 GMT 47.915661 -4.189805 39,000 213 481 -128
2021-12-01 21:05:02 GMT 47.920921 -4.184805 39,000 213 481 -128
2021-12-01 21:04:59 GMT 47.927670 -4.178396 39,000 213 481 -128
2021-12-01 21:04:55 GMT 47.933304 -4.173088 39,000 213 481 -64
2021-12-01 21:04:53 GMT 47.938522 -4.168076 39,000 213 481 -64
2021-12-01 21:04:50 GMT 47.943787 -4.163132 39,000 213 480 64
2021-12-01 21:04:47 GMT 47.949738 -4.157433 39,000 213 480 64
2021-12-01 21:04:44 GMT 47.956512 -4.151047 39,000 213 480 192
2021-12-01 21:04:41 GMT 47.962120 -4.145719 39,000 213 480 128
2021-12-01 21:04:37 GMT 47.967728 -4.140335 39,000 213 480 64
2021-12-01 21:04:34 GMT 47.973339 -4.135014 38,975 213 480 0
2021-12-01 21:04:32 GMT 47.977856 -4.130719 38,975 213 480 -64
2021-12-01 21:04:29 GMT 47.982697 -4.126122 38,975 213 480 -64
2021-12-01 21:04:25 GMT 47.995422 -4.113968 39,000 213 480 64
2021-12-01 21:04:22 GMT 47.995422 -4.113968 39,000 213 480 64
2021-12-01 21:04:19 GMT 48.002151 -4.107582 39,000 213 480 0
2021-12-01 21:04:15 GMT 48.009277 -4.100788 39,000 213 480 -64
2021-12-01 21:04:12 GMT 48.016769 -4.093675 39,000 213 480 -64
2021-12-01 21:04:09 GMT 48.020496 -4.090083 39,000 213 480 -64
2021-12-01 21:04:04 GMT 48.030224 -4.080857 39,000 213 479 -64
2021-12-01 21:04:00 GMT 48.037308 -4.074074 39,000 213 479 -64
2021-12-01 21:03:57 GMT 48.042934 -4.068744 39,000 213 479 -64
2021-12-01 21:03:54 GMT 48.049255 -4.062675 39,000 213 479 -64
2021-12-01 21:03:51 GMT 48.054108 -4.058040 39,000 213 479 -64
2021-12-01 21:03:48 GMT 48.058960 -4.053406 39,000 213 479 -64
2021-12-01 21:03:45 GMT 48.069050 -4.043814 39,000 213 479 0
2021-12-01 21:03:39 GMT 48.077244 -4.035926 39,000 213 479 -64
2021-12-01 21:03:34 GMT 48.087341 -4.026352 39,000 213 479 0
2021-12-01 21:03:31 GMT 48.096268 -4.017769 39,000 213 479 64
2021-12-01 21:03:28 GMT 48.096268 -4.017769 39,000 213 479 0
2021-12-01 21:03:24 GMT 48.104103 -4.010291 39,000 213 479 0
2021-12-01 21:03:22 GMT 48.107082 -4.007404 39,000 213 478 64
2021-12-01 21:03:19 GMT 48.115276 -3.999587 39,000 213 478 64
2021-12-01 21:03:15 GMT 48.121979 -3.993178 39,000 213 478 128
2021-12-01 21:03:11 GMT 48.129044 -3.986389 39,000 213 478 64
2021-12-01 21:03:08 GMT 48.133896 -3.981769 39,000 213 478 128
2021-12-01 21:03:05 GMT 48.147259 -3.968952 38,975 213 478 128
2021-12-01 21:03:02 GMT 48.147259 -3.968952 38,975 213 479 64
2021-12-01 21:02:59 GMT 48.150982 -3.965360 38,975 213 479 -64
2021-12-01 21:02:56 GMT 48.156555 -3.960022 38,975 213 479 -64
2021-12-01 21:02:53 GMT 48.162155 -3.954644 39,000 213 480 -128
2021-12-01 21:02:50 GMT 48.169968 -3.947120 39,000 213 480 -128
2021-12-01 21:02:47 GMT 48.173325 -3.943875 39,000 213 480 -128
2021-12-01 21:02:44 GMT 48.178539 -3.938888 39,000 213 480 -192
2021-12-01 21:02:42 GMT 48.189014 -3.928841 39,025 213 480 -128
2021-12-01 21:02:39 GMT 48.189014 -3.928841 39,025 213 480 -128
2021-12-01 21:02:36 GMT 48.193817 -3.924161 39,025 213 479 0
2021-12-01 21:02:33 GMT 48.199814 -3.918457 39,000 213 479 64
2021-12-01 21:02:29 GMT 48.212448 -3.906273 39,000 213 479 64
2021-12-01 21:02:26 GMT 48.212448 -3.906273 39,000 213 479 64
2021-12-01 21:02:23 GMT 48.219910 -3.899161 39,000 213 479 64
2021-12-01 21:02:18 GMT 48.228443 -3.890895 39,000 213 479 -64
2021-12-01 21:02:14 GMT 48.233658 -3.885835 39,000 213 479 -128
2021-12-01 21:02:12 GMT 48.238495 -3.881202 39,000 213 479 64
2021-12-01 21:02:09 GMT 48.247810 -3.872247 39,000 213 479 64
2021-12-01 21:02:06 GMT 48.247810 -3.872247 39,000 213 479 64
2021-12-01 21:02:04 GMT 48.253769 -3.866537 39,000 213 479 64
2021-12-01 21:02:01 GMT 48.259727 -3.860827 39,000 213 479 64
2021-12-01 21:01:58 GMT 48.265320 -3.855426 39,000 213 479 0
2021-12-01 21:01:55 GMT 48.268295 -3.852539 39,000 213 479 0
2021-12-01 21:01:53 GMT 48.273880 -3.847166 39,000 213 479 64
2021-12-01 21:01:50 GMT 48.279465 -3.841764 39,000 213 480 64
2021-12-01 21:01:47 GMT 48.284683 -3.836764 39,000 213 480 64
2021-12-01 21:01:44 GMT 48.291367 -3.830285 39,000 213 480 128
2021-12-01 21:01:41 GMT 48.296223 -3.825555 39,000 213 480 64
2021-12-01 21:01:39 GMT 48.299950 -3.821941 39,000 213 480 0
2021-12-01 21:01:36 GMT 48.304462 -3.817604 39,000 213 481 -64
2021-12-01 21:01:33 GMT 48.313065 -3.809298 39,000 213 481 -64
2021-12-01 21:01:29 GMT 48.317917 -3.804594 39,000 213 477 -64
2021-12-01 21:01:26 GMT 48.323502 -3.799227 39,000 213 480 0
2021-12-01 21:01:24 GMT 48.327988 -3.794861 39,000 213 480 -64
2021-12-01 21:01:22 GMT 48.332813 -3.790211 39,000 213 479 -64
2021-12-01 21:01:19 GMT 48.336182 -3.786903 39,000 213 477 128
2021-12-01 21:01:16 GMT 48.342865 -3.780494 39,000 213 478 -64
2021-12-01 21:01:13 GMT 48.348083 -3.775423 39,000 213 478 0
2021-12-01 21:01:11 GMT 48.351791 -3.771832 39,000 213 478 64
2021-12-01 21:01:08 GMT 48.356602 -3.767154 39,000 213 476 64
2021-12-01 21:01:06 GMT 48.360672 -3.763240 39,000 213 477 0
2021-12-01 21:01:04 GMT 48.365112 -3.758944 39,000 213 476 64
2021-12-01 21:01:02 GMT 48.369217 -3.755011 39,000 213 476 64
2021-12-01 21:00:59 GMT 48.373642 -3.750675 39,000 213 477 -64
2021-12-01 21:00:56 GMT 48.379211 -3.745352 39,000 213 477 -64
2021-12-01 21:00:53 GMT 48.386581 -3.738098 39,000 213 477 64
2021-12-01 21:00:50 GMT 48.391754 -3.733098 39,000 213 477 0
2021-12-01 21:00:47 GMT 48.396240 -3.728802 39,000 213 477 64
2021-12-01 21:00:44 GMT 48.408096 -3.717323 39,000 213 477 64
2021-12-01 21:00:42 GMT 48.408096 -3.717323 39,000 213 477 64
2021-12-01 21:00:39 GMT 48.412186 -3.713307 39,000 213 477 0
2021-12-01 21:00:37 GMT 48.420685 -3.705069 39,000 213 477 -64
2021-12-01 21:00:34 GMT 48.420685 -3.705069 39,000 213 477 -64
2021-12-01 21:00:32 GMT 48.424393 -3.701477 39,000 213 477 -64
2021-12-01 21:00:29 GMT 48.429131 -3.696827 39,000 213 477 -64
2021-12-01 21:00:26 GMT 48.435135 -3.691045 39,000 213 477 -64
2021-12-01 21:00:23 GMT 48.442490 -3.683817 39,000 213 477 0
2021-12-01 21:00:20 GMT 48.449146 -3.677384 39,000 213 476 64
2021-12-01 21:00:16 GMT 48.453964 -3.672673 39,000 213 476 64
2021-12-01 21:00:13 GMT 48.459530 -3.667265 39,000 213 476 64
2021-12-01 21:00:11 GMT 48.462368 -3.664519 39,000 213 476 64
2021-12-01 21:00:09 GMT 48.466553 -3.660490 39,000 213 475 0
2021-12-01 21:00:06 GMT 48.472054 -3.655050 39,000 213 475 0
2021-12-01 21:00:03 GMT 48.477585 -3.649715 39,000 213 475 0
2021-12-01 21:00:01 GMT 48.482388 -3.645003 39,000 213 475 64
2021-12-01 20:59:58 GMT 48.487553 -3.640016 39,000 213 475 64
2021-12-01 20:59:56 GMT 48.490128 -3.637461 39,000 213 475 64
2021-12-01 20:59:54 GMT 48.494907 -3.632788 39,000 213 475 0
2021-12-01 20:59:52 GMT 48.503754 -3.624187 39,000 213 475 0
2021-12-01 20:59:49 GMT 48.503754 -3.624187 39,000 213 475 0
2021-12-01 20:59:47 GMT 48.508179 -3.619851 39,000 213 475 0
2021-12-01 20:59:45 GMT 48.513702 -3.614502 39,000 213 475 0
2021-12-01 20:59:42 GMT 48.521442 -3.606913 39,000 213 475 -64
2021-12-01 20:59:39 GMT 48.521442 -3.606913 39,000 213 475 -64
2021-12-01 20:59:37 GMT 48.526108 -3.602389 39,000 213 475 -64
2021-12-01 20:59:34 GMT 48.531731 -3.596866 39,000 213 475 -64
2021-12-01 20:59:32 GMT 48.535271 -3.593397 39,000 213 475 -64
2021-12-01 20:59:29 GMT 48.546021 -3.582881 39,000 213 474 64
2021-12-01 20:59:26 GMT 48.546021 -3.582881 39,000 213 474 64
2021-12-01 20:59:24 GMT 48.549774 -3.579289 39,000 213 474 64
2021-12-01 20:59:22 GMT 48.553436 -3.575698 39,000 214 473 128
2021-12-01 20:59:19 GMT 48.558563 -3.570627 39,000 214 473 64
2021-12-01 20:59:17 GMT 48.568130 -3.561331 39,000 214 473 128
2021-12-01 20:59:14 GMT 48.571060 -3.558444 39,000 214 473 64
2021-12-01 20:59:09 GMT 48.581684 -3.548006 39,000 214 474 0
2021-12-01 20:59:06 GMT 48.581684 -3.548006 39,000 214 474 0
2021-12-01 20:59:03 GMT 48.589279 -3.540556 39,000 214 474 0
2021-12-01 20:59:01 GMT 48.591614 -3.538302 39,000 214 474 0
2021-12-01 20:58:59 GMT 48.595276 -3.534710 39,000 214 474 0
2021-12-01 20:58:56 GMT 48.601089 -3.529006 39,000 214 474 -64
2021-12-01 20:58:53 GMT 48.607426 -3.522781 39,000 214 474 -64
2021-12-01 20:58:50 GMT 48.610359 -3.519962 39,000 214 474 -64
2021-12-01 20:58:48 GMT 48.615524 -3.514902 39,000 214 474 0
2021-12-01 20:58:46 GMT 48.625813 -3.504783 39,000 214 474 -64
2021-12-01 20:58:43 GMT 48.625813 -3.504783 39,000 214 474 -64
2021-12-01 20:58:41 GMT 48.628746 -3.501892 39,000 214 474 0
2021-12-01 20:58:39 GMT 48.633030 -3.497700 39,000 214 474 0
2021-12-01 20:58:36 GMT 48.637161 -3.493652 39,000 214 474 -64
2021-12-01 20:58:34 GMT 48.642712 -3.488231 39,000 214 474 -64
2021-12-01 20:58:31 GMT 48.653320 -3.477807 39,000 214 474 0
2021-12-01 20:58:28 GMT 48.653320 -3.477807 39,000 214 474 0
2021-12-01 20:58:25 GMT 48.659657 -3.471607 39,000 214 474 -64
2021-12-01 20:58:22 GMT 48.662544 -3.468716 39,000 214 475 -64
2021-12-01 20:58:20 GMT 48.667328 -3.464003 39,000 214 474 0
2021-12-01 20:58:18 GMT 48.670349 -3.461116 39,000 214 474 -64
2021-12-01 20:58:16 GMT 48.674229 -3.457224 39,000 214 474 64
2021-12-01 20:58:13 GMT 48.679825 -3.451749 39,000 214 474 64
2021-12-01 20:58:11 GMT 48.684174 -3.447524 39,000 214 474 64
2021-12-01 20:58:09 GMT 48.688614 -3.443087 39,000 214 474 64
2021-12-01 20:58:05 GMT 48.694199 -3.437637 39,000 214 475 64
2021-12-01 20:58:02 GMT 48.704132 -3.427805 39,000 214 475 64
2021-12-01 20:57:58 GMT 48.707466 -3.424554 39,000 214 475 64
2021-12-01 20:57:56 GMT 48.712234 -3.419847 39,000 214 475 64
2021-12-01 20:57:53 GMT 48.715897 -3.416185 39,000 214 475 64
2021-12-01 20:57:51 GMT 48.720688 -3.411472 39,000 214 475 64
2021-12-01 20:57:48 GMT 48.725418 -3.406889 39,000 214 475 64
2021-12-01 20:57:46 GMT 48.734608 -3.397811 39,000 214 475 0
2021-12-01 20:57:43 GMT 48.734608 -3.397811 39,000 214 475 0
2021-12-01 20:57:41 GMT 48.739029 -3.393402 39,000 214 475 0
2021-12-01 20:57:38 GMT 48.744942 -3.387620 39,000 214 475 0
2021-12-01 20:57:35 GMT 48.750809 -3.381838 39,000 214 475 -64
2021-12-01 20:57:33 GMT 48.753342 -3.379352 39,000 214 475 -64
2021-12-01 20:57:31 GMT 48.757828 -3.374915 39,000 214 475 -64
2021-12-01 20:57:28 GMT 48.763329 -3.369478 39,000 214 474 -64
2021-12-01 20:57:25 GMT 48.768814 -3.364000 39,000 214 474 0
2021-12-01 20:57:23 GMT 48.772476 -3.360408 39,000 214 474 -64
2021-12-01 20:57:21 GMT 48.776550 -3.356396 39,000 214 474 -64
2021-12-01 20:57:18 GMT 48.780926 -3.352059 39,000 214 474 0
2021-12-01 20:57:15 GMT 48.785706 -3.347379 39,000 214 473 64
2021-12-01 20:57:13 GMT 48.790009 -3.343083 39,000 214 473 64
2021-12-01 20:57:11 GMT 48.799175 -3.334061 39,000 214 473 64
2021-12-01 20:57:08 GMT 48.799175 -3.334061 39,000 214 473 0
2021-12-01 20:57:05 GMT 48.805389 -3.327871 39,000 214 473 0
2021-12-01 20:57:02 GMT 48.809830 -3.323505 39,000 214 473 0
2021-12-01 20:57:00 GMT 48.814957 -3.318434 39,000 214 473 0
2021-12-01 20:56:57 GMT 48.820354 -3.313101 39,000 214 473 0
2021-12-01 20:56:55 GMT 48.824341 -3.309138 39,000 214 473 0
2021-12-01 20:56:53 GMT 48.827011 -3.306523 39,000 214 473 0
2021-12-01 20:56:50 GMT 48.831711 -3.301814 39,000 214 473 -64
2021-12-01 20:56:47 GMT 48.844162 -3.289490 39,000 214 474 -64
2021-12-01 20:56:44 GMT 48.844162 -3.289490 39,000 214 474 -64
2021-12-01 20:56:42 GMT 48.847137 -3.286532 39,000 214 474 0
2021-12-01 20:56:40 GMT 48.850754 -3.282940 39,000 214 474 64
2021-12-01 20:56:38 GMT 48.855927 -3.277799 39,000 214 474 0
2021-12-01 20:56:36 GMT 48.862904 -3.270890 39,000 214 474 0
2021-12-01 20:56:31 GMT 48.867645 -3.266179 39,000 214 474 -64
2021-12-01 20:56:29 GMT 48.870575 -3.263292 39,000 214 474 0
2021-12-01 20:56:26 GMT 48.881851 -3.252098 39,000 214 474 64
2021-12-01 20:56:23 GMT 48.885620 -3.248339 39,000 214 474 64
2021-12-01 20:56:18 GMT 48.891083 -3.242939 39,000 214 473 64
2021-12-01 20:56:16 GMT 48.895073 -3.238943 39,000 214 473 -64
2021-12-01 20:56:12 GMT 48.902664 -3.231459 39,000 214 473 -64
2021-12-01 20:56:10 GMT 48.905361 -3.228752 39,000 214 473 -64
2021-12-01 20:56:08 GMT 48.909737 -3.224415 39,000 214 473 0
2021-12-01 20:56:05 GMT 48.915253 -3.218924 39,000 214 473 0
2021-12-01 20:56:02 GMT 48.919647 -3.214557 39,000 214 473 -64
2021-12-01 20:56:00 GMT 48.923656 -3.210538 39,000 214 473 64
2021-12-01 20:55:57 GMT 48.933105 -3.201141 39,000 214 473 64
2021-12-01 20:55:55 GMT 48.933105 -3.201141 39,000 214 473 64
2021-12-01 20:55:52 GMT 48.939018 -3.195287 39,000 214 473 0
2021-12-01 20:55:50 GMT 48.941856 -3.192396 39,000 214 474 64
2021-12-01 20:55:47 GMT 48.948166 -3.186176 39,000 214 474 0
2021-12-01 20:55:45 GMT 48.951828 -3.182443 39,000 214 475 64
2021-12-01 20:55:42 GMT 48.957314 -3.177000 39,000 214 475 64
2021-12-01 20:55:39 GMT 48.968628 -3.165753 39,000 214 475 64
2021-12-01 20:55:36 GMT 48.968628 -3.165753 39,000 214 475 0
2021-12-01 20:55:32 GMT 48.976257 -3.158063 39,000 214 475 -64
2021-12-01 20:55:28 GMT 48.982918 -3.151414 39,000 214 475 0
2021-12-01 20:55:24 GMT 48.988037 -3.146354 39,000 214 474 -64
2021-12-01 20:55:22 GMT 48.993530 -3.140822 39,000 214 474 -64
2021-12-01 20:55:20 GMT 48.997238 -3.137160 39,000 214 474 -64
2021-12-01 20:55:17 GMT 49.002655 -3.131754 39,000 214 473 -64
2021-12-01 20:55:15 GMT 49.005341 -3.129061 39,000 214 473 -64
2021-12-01 20:55:12 GMT 49.012291 -3.122141 39,000 214 474 -64
2021-12-01 20:55:10 GMT 49.015179 -3.119250 39,000 214 474 0
2021-12-01 20:55:08 GMT 49.018856 -3.115564 39,000 214 473 0
2021-12-01 20:55:05 GMT 49.030884 -3.103567 39,000 214 473 0
2021-12-01 20:55:02 GMT 49.030884 -3.103567 39,000 214 473 64
2021-12-01 20:55:00 GMT 49.033859 -3.100609 39,000 214 474 64
2021-12-01 20:54:58 GMT 49.042175 -3.092290 39,000 214 474 -64
2021-12-01 20:54:55 GMT 49.042175 -3.092290 39,000 214 473 -64
2021-12-01 20:54:53 GMT 49.046646 -3.087809 39,000 214 473 -64
2021-12-01 20:54:51 GMT 49.050278 -3.084123 39,000 214 473 -64
2021-12-01 20:54:49 GMT 49.055786 -3.078637 39,000 214 473 0
2021-12-01 20:54:46 GMT 49.059074 -3.075377 39,000 214 473 64
2021-12-01 20:54:44 GMT 49.064941 -3.069522 39,000 214 473 64
2021-12-01 20:54:40 GMT 49.070713 -3.063740 39,000 214 473 64
2021-12-01 20:54:38 GMT 49.075134 -3.059259 39,000 214 474 64
2021-12-01 20:54:35 GMT 49.080257 -3.054127 39,000 214 474 0
2021-12-01 20:54:32 GMT 49.085037 -3.049340 39,000 214 474 0
2021-12-01 20:54:30 GMT 49.088654 -3.045678 39,000 214 474 0
2021-12-01 20:54:26 GMT 49.095886 -3.038424 39,000 214 474 -64
2021-12-01 20:54:24 GMT 49.099995 -3.034323 39,000 214 474 -64
2021-12-01 20:54:21 GMT 49.104630 -3.029691 39,000 214 474 -64
2021-12-01 20:54:19 GMT 49.107651 -3.026663 39,000 214 473 -64
2021-12-01 20:54:16 GMT 49.115265 -3.019000 39,000 214 473 0
2021-12-01 20:54:14 GMT 49.117905 -3.016310 39,000 214 473 64
2021-12-01 20:54:11 GMT 49.124107 -3.010109 39,000 214 472 64
2021-12-01 20:54:08 GMT 49.128799 -3.005324 39,000 214 472 64
2021-12-01 20:54:05 GMT 49.133560 -3.000569 39,000 214 472 64
2021-12-01 20:54:02 GMT 49.140076 -2.994064 39,000 214 472 0
2021-12-01 20:54:00 GMT 49.143356 -2.990746 39,000 214 471 0
2021-12-01 20:53:58 GMT 49.146927 -2.987154 39,000 214 471 0
2021-12-01 20:53:55 GMT 49.152367 -2.981632 39,000 214 471 0
2021-12-01 20:53:52 GMT 49.162216 -2.971731 39,000 214 469 0
2021-12-01 20:53:50 GMT 49.162216 -2.971731 39,000 214 469 0
2021-12-01 20:53:48 GMT 49.165493 -2.968477 39,000 214 469 0
2021-12-01 20:53:45 GMT 49.171268 -2.962622 39,000 214 469 0
2021-12-01 20:53:43 GMT 49.177040 -2.956768 39,000 214 469 0
2021-12-01 20:53:41 GMT 49.177040 -2.956768 39,000 214 468 0
2021-12-01 20:53:38 GMT 49.184116 -2.949685 39,000 214 468 0
2021-12-01 20:53:35 GMT 49.194031 -2.939688 39,000 214 467 -64
2021-12-01 20:53:32 GMT 49.194031 -2.939688 39,000 214 467 0
2021-12-01 20:53:30 GMT 49.198734 -2.934940 39,000 214 467 -64
2021-12-01 20:53:26 GMT 49.205521 -2.928068 39,000 214 467 0
2021-12-01 20:53:24 GMT 49.208405 -2.925180 39,000 214 467 64
2021-12-01 20:53:21 GMT 49.213024 -2.920484 39,000 214 467 64
2021-12-01 20:53:18 GMT 49.218750 -2.914702 39,000 214 467 64
2021-12-01 20:53:15 GMT 49.227173 -2.906236 39,000 214 467 0
2021-12-01 20:53:12 GMT 49.230011 -2.903348 39,000 214 467 0
2021-12-01 20:53:09 GMT 49.237289 -2.896024 39,000 214 469 0
2021-12-01 20:53:05 GMT 49.242584 -2.890633 39,000 214 469 0
2021-12-01 20:53:02 GMT 49.247704 -2.885429 39,000 214 469 0
2021-12-01 20:53:00 GMT 49.251198 -2.881960 39,000 214 469 0
2021-12-01 20:52:58 GMT 49.255325 -2.877784 39,000 214 470 0
2021-12-01 20:52:55 GMT 49.260693 -2.872347 39,000 214 471 -64
2021-12-01 20:52:53 GMT 49.267956 -2.864974 39,000 214 469 0
2021-12-01 20:52:51 GMT 49.267956 -2.864974 39,000 214 470 -64
2021-12-01 20:52:49 GMT 49.270523 -2.862431 39,000 214 470 0
2021-12-01 20:52:47 GMT 49.276245 -2.856586 39,000 214 470 0
2021-12-01 20:52:45 GMT 49.279083 -2.853699 39,000 214 472 0
2021-12-01 20:52:42 GMT 49.287186 -2.845529 39,000 214 471 0
2021-12-01 20:52:40 GMT 49.287186 -2.845529 39,000 214 471 0
2021-12-01 20:52:37 GMT 49.294327 -2.838276 39,000 214 471 0
2021-12-01 20:52:35 GMT 49.296211 -2.836424 39,000 214 471 -64
2021-12-01 20:52:33 GMT 49.304966 -2.827534 39,000 214 471 -64
2021-12-01 20:52:31 GMT 49.304966 -2.827534 39,000 214 472 -64
2021-12-01 20:52:28 GMT 49.310040 -2.822330 39,000 214 472 -64
2021-12-01 20:52:25 GMT 49.315521 -2.816796 39,000 214 472 -64
2021-12-01 20:52:23 GMT 49.319489 -2.812789 39,000 214 472 -64
2021-12-01 20:52:20 GMT 49.323486 -2.808697 39,000 214 472 0
2021-12-01 20:52:18 GMT 49.328239 -2.803899 39,000 214 472 64
2021-12-01 20:52:15 GMT 49.333649 -2.798415 39,000 214 473 64
2021-12-01 20:52:13 GMT 49.337311 -2.794682 39,000 214 472 64
2021-12-01 20:52:11 GMT 49.342625 -2.789299 39,000 214 472 0
2021-12-01 20:52:08 GMT 49.346054 -2.785809 39,000 214 472 -64
2021-12-01 20:52:05 GMT 49.351822 -2.779964 39,000 214 472 0
2021-12-01 20:52:03 GMT 49.355148 -2.776578 39,000 214 471 0
2021-12-01 20:52:01 GMT 49.359146 -2.772498 39,000 214 471 0
2021-12-01 20:51:59 GMT 49.361664 -2.769928 39,000 214 471 64
2021-12-01 20:51:57 GMT 49.366379 -2.765104 39,000 214 471 64
2021-12-01 20:51:54 GMT 49.371021 -2.760387 39,000 214 471 64
2021-12-01 20:51:52 GMT 49.374390 -2.757005 39,000 214 471 64
2021-12-01 20:51:50 GMT 49.381668 -2.749610 39,000 214 471 64
2021-12-01 20:51:46 GMT 49.385284 -2.745948 39,000 214 472 64
2021-12-01 20:51:44 GMT 49.388901 -2.742216 39,000 214 472 64
2021-12-01 20:51:42 GMT 49.394253 -2.736824 39,000 214 472 64
2021-12-01 20:51:38 GMT 49.400391 -2.730525 39,000 214 471 64
2021-12-01 20:51:36 GMT 49.403049 -2.727790 39,000 214 471 0
2021-12-01 20:51:33 GMT 49.410217 -2.720490 39,000 214 471 0
2021-12-01 20:51:31 GMT 49.415771 -2.714820 39,000 214 472 -64
2021-12-01 20:51:28 GMT 49.424835 -2.705600 39,000 214 472 0
2021-12-01 20:51:25 GMT 49.424835 -2.705600 39,000 214 472 0
2021-12-01 20:51:22 GMT 49.429550 -2.700757 39,000 214 472 0
2021-12-01 20:51:20 GMT 49.432098 -2.698183 39,000 214 472 -64
2021-12-01 20:51:18 GMT 49.436829 -2.693385 39,000 214 471 -64
2021-12-01 20:51:15 GMT 49.442993 -2.687048 39,000 214 471 -64
2021-12-01 20:51:12 GMT 49.448410 -2.681531 39,000 214 471 0
2021-12-01 20:51:10 GMT 49.458076 -2.671682 39,000 214 470 0
2021-12-01 20:51:07 GMT 49.458076 -2.671682 39,000 214 470 0
2021-12-01 20:51:03 GMT 49.463242 -2.666412 39,000 214 470 0
2021-12-01 20:51:01 GMT 49.466873 -2.662700 39,000 214 470 0
2021-12-01 20:50:59 GMT 49.471573 -2.657896 39,000 214 470 0
2021-12-01 20:50:57 GMT 49.476654 -2.652692 39,000 214 470 0
2021-12-01 20:50:54 GMT 49.480606 -2.648596 39,000 214 470 64
2021-12-01 20:50:51 GMT 49.485901 -2.643224 39,000 214 470 64
2021-12-01 20:50:49 GMT 49.489265 -2.639762 39,000 214 470 64
2021-12-01 20:50:46 GMT 49.495037 -2.633824 39,000 214 470 64
2021-12-01 20:50:44 GMT 49.498306 -2.630503 39,000 214 470 64
2021-12-01 20:50:42 GMT 49.502811 -2.625881 39,000 214 470 64
2021-12-01 20:50:40 GMT 49.505882 -2.622763 39,000 214 470 0
2021-12-01 20:50:37 GMT 49.518402 -2.609976 39,000 214 470 0
2021-12-01 20:50:34 GMT 49.518402 -2.609976 39,000 214 470 0
2021-12-01 20:50:31 GMT 49.522018 -2.606290 39,000 214 470 0
2021-12-01 20:50:29 GMT 49.525391 -2.602795 39,000 214 470 -64
2021-12-01 20:50:26 GMT 49.530807 -2.597255 39,000 214 470 -64
2021-12-01 20:50:23 GMT 49.537170 -2.590677 39,000 214 470 -64
2021-12-01 20:50:20 GMT 49.541264 -2.586538 39,000 214 469 -64
2021-12-01 20:50:18 GMT 49.544849 -2.582826 39,000 214 469 -64
2021-12-01 20:50:16 GMT 49.549530 -2.578029 39,000 214 469 0
2021-12-01 20:50:14 GMT 49.552063 -2.575403 39,000 214 468 0
2021-12-01 20:50:11 GMT 49.557449 -2.569861 39,000 214 468 64
2021-12-01 20:50:09 GMT 49.562119 -2.565085 39,000 214 467 64
2021-12-01 20:50:06 GMT 49.565750 -2.561373 39,000 214 467 64
2021-12-01 20:50:04 GMT 49.570953 -2.556056 39,000 214 467 0
2021-12-01 20:50:02 GMT 49.573975 -2.552876 39,000 214 467 -64
2021-12-01 20:50:00 GMT 49.579250 -2.547492 39,000 214 467 -64
2021-12-01 20:49:57 GMT 49.583954 -2.542684 39,000 214 467 -64
2021-12-01 20:49:54 GMT 49.590004 -2.536431 39,000 214 467 64
2021-12-01 20:49:51 GMT 49.594425 -2.531903 39,000 214 467 64
2021-12-01 20:49:49 GMT 49.597824 -2.528414 39,000 214 467 64
2021-12-01 20:49:47 GMT 49.604004 -2.522013 39,000 214 467 64
2021-12-01 20:49:43 GMT 49.609131 -2.516809 39,000 214 465 0
2021-12-01 20:49:40 GMT 49.613792 -2.512009 39,000 214 465 0
2021-12-01 20:49:38 GMT 49.616493 -2.509188 39,000 214 465 0
2021-12-01 20:49:36 GMT 49.621307 -2.504232 39,000 214 466 -64
2021-12-01 20:49:33 GMT 49.624878 -2.500546 39,000 214 466 -64
2021-12-01 20:49:31 GMT 49.629528 -2.495752 39,000 214 466 -64
2021-12-01 20:49:29 GMT 49.633110 -2.492041 39,000 214 467 0
2021-12-01 20:49:26 GMT 49.637741 -2.487247 39,000 214 467 0
2021-12-01 20:49:24 GMT 49.642235 -2.482687 39,000 214 467 64
2021-12-01 20:49:22 GMT 49.646564 -2.478234 39,000 214 467 64
2021-12-01 20:49:20 GMT 49.649918 -2.474743 39,000 214 467 64
2021-12-01 20:49:18 GMT 49.651886 -2.472719 39,000 214 467 64
2021-12-01 20:49:16 GMT 49.656372 -2.468093 39,000 214 467 64
2021-12-01 20:49:14 GMT 49.660538 -2.463756 39,000 214 467 64
2021-12-01 20:49:12 GMT 49.668411 -2.455589 39,000 214 467 0
2021-12-01 20:49:09 GMT 49.668411 -2.455589 39,000 214 467 0
2021-12-01 20:49:06 GMT 49.676079 -2.447724 39,000 214 467 0
2021-12-01 20:49:03 GMT 49.683247 -2.440301 39,000 214 466 0
2021-12-01 20:49:01 GMT 49.683247 -2.440301 39,000 214 466 0
2021-12-01 20:48:59 GMT 49.686493 -2.436941 39,000 214 466 0
2021-12-01 20:48:56 GMT 49.693817 -2.429389 39,000 214 466 0
2021-12-01 20:48:53 GMT 49.702427 -2.420481 39,000 214 466 -64
2021-12-01 20:48:50 GMT 49.702427 -2.420481 39,000 214 466 -64
2021-12-01 20:48:47 GMT 49.709335 -2.413306 39,000 214 466 0
2021-12-01 20:48:45 GMT 49.711304 -2.411282 39,000 214 467 0
2021-12-01 20:48:43 GMT 49.715057 -2.407379 39,000 214 467 0
2021-12-01 20:48:41 GMT 49.719360 -2.402898 39,000 214 467 0
2021-12-01 20:48:39 GMT 49.722931 -2.399212 39,000 214 467 -64
2021-12-01 20:48:36 GMT 49.726547 -2.395525 39,000 214 467 0
2021-12-01 20:48:34 GMT 49.732132 -2.389743 39,000 214 468 64
2021-12-01 20:48:31 GMT 49.737667 -2.383959 39,000 214 468 64
2021-12-01 20:48:29 GMT 49.741951 -2.379505 39,000 214 472 64
2021-12-01 20:48:26 GMT 49.746281 -2.375051 39,000 214 469 -64
2021-12-01 20:48:23 GMT 49.751678 -2.369433 39,000 214 470 -64
2021-12-01 20:48:20 GMT 49.757080 -2.363842 39,000 214 470 -64
2021-12-01 20:48:18 GMT 49.762154 -2.358572 39,000 214 470 0
2021-12-01 20:48:15 GMT 49.765739 -2.354860 39,000 214 471 0
2021-12-01 20:48:13 GMT 49.770813 -2.349590 39,000 214 471 0
2021-12-01 20:48:10 GMT 49.774796 -2.345509 39,000 214 472 -64
2021-12-01 20:48:07 GMT 49.781113 -2.338931 39,000 214 472 -64
2021-12-01 20:48:04 GMT 49.786736 -2.333110 39,000 214 472 -64
2021-12-01 20:48:01 GMT 49.791962 -2.327656 39,000 214 472 0
2021-12-01 20:47:59 GMT 49.794342 -2.325199 39,000 214 472 0
2021-12-01 20:47:56 GMT 49.800842 -2.318477 39,000 214 472 0
2021-12-01 20:47:53 GMT 49.805191 -2.313923 39,000 214 472 0
2021-12-01 20:47:51 GMT 49.812195 -2.306623 39,000 214 472 64
2021-12-01 20:47:49 GMT 49.812195 -2.306623 39,000 214 472 64
2021-12-01 20:47:47 GMT 49.816727 -2.301925 39,000 214 472 64
2021-12-01 20:47:45 GMT 49.820717 -2.297776 39,000 214 472 64
2021-12-01 20:47:43 GMT 49.824692 -2.293613 39,000 214 472 64
2021-12-01 20:47:40 GMT 49.829773 -2.288409 39,000 214 472 64
2021-12-01 20:47:37 GMT 49.836273 -2.281615 39,000 214 472 128
2021-12-01 20:47:34 GMT 49.838825 -2.278995 39,000 214 472 64
2021-12-01 20:47:32 GMT 49.842773 -2.274820 39,000 214 472 64
2021-12-01 20:47:30 GMT 49.845703 -2.271785 39,000 215 473 64
2021-12-01 20:47:28 GMT 49.851116 -2.266153 39,000 214 472 -64
2021-12-01 20:47:25 GMT 49.856552 -2.260437 39,000 214 472 -64
2021-12-01 20:47:23 GMT 49.861263 -2.255538 39,000 214 472 -64
2021-12-01 20:47:20 GMT 49.864754 -2.251900 39,000 214 472 -64
2021-12-01 20:47:18 GMT 49.869225 -2.247224 39,000 214 472 -64
2021-12-01 20:47:16 GMT 49.872856 -2.243438 39,000 214 472 -64
2021-12-01 20:47:13 GMT 49.878487 -2.237574 39,000 215 472 -64
2021-12-01 20:47:11 GMT 49.882259 -2.233639 39,000 215 471 -64
2021-12-01 20:47:09 GMT 49.885483 -2.230225 39,000 215 471 0
2021-12-01 20:47:06 GMT 49.890778 -2.224731 39,000 214 470 64
2021-12-01 20:47:04 GMT 49.898087 -2.217086 39,000 214 470 128
2021-12-01 20:47:02 GMT 49.898087 -2.217086 39,000 214 470 128
2021-12-01 20:47:00 GMT 49.900833 -2.214265 39,000 214 470 64
2021-12-01 20:46:58 GMT 49.911209 -2.203337 39,000 215 469 64
2021-12-01 20:46:55 GMT 49.911209 -2.203337 39,000 214 470 64
2021-12-01 20:46:52 GMT 49.915916 -2.198453 39,000 214 470 64
2021-12-01 20:46:50 GMT 49.919594 -2.194668 39,000 214 470 0
2021-12-01 20:46:48 GMT 49.923271 -2.190733 39,000 214 470 0
2021-12-01 20:46:46 GMT 49.926159 -2.187764 39,000 214 470 64
2021-12-01 20:46:44 GMT 49.929790 -2.183978 39,000 214 470 64
2021-12-01 20:46:42 GMT 49.934818 -2.178708 39,000 215 470 -64
2021-12-01 20:46:39 GMT 49.941147 -2.172101 39,000 215 470 -64
2021-12-01 20:46:36 GMT 49.945572 -2.167424 39,000 215 470 -64
2021-12-01 20:46:34 GMT 49.947235 -2.165680 39,000 215 469 -64
2021-12-01 20:46:32 GMT 49.950989 -2.161777 39,000 215 469 0
2021-12-01 20:46:30 GMT 49.961609 -2.150646 39,000 215 469 0
2021-12-01 20:46:27 GMT 49.961609 -2.150646 39,000 215 469 0
2021-12-01 20:46:25 GMT 49.964539 -2.147610 39,000 215 468 0
2021-12-01 20:46:22 GMT 49.968933 -2.142984 39,000 215 468 0
2021-12-01 20:46:20 GMT 49.973236 -2.138431 39,000 215 468 64
2021-12-01 20:46:18 GMT 49.976807 -2.134672 39,000 215 468 64
2021-12-01 20:46:16 GMT 49.980625 -2.130680 39,000 215 469 -64
2021-12-01 20:46:14 GMT 49.983261 -2.127878 39,000 215 468 0
2021-12-01 20:46:12 GMT 49.988491 -2.122440 39,000 215 469 -64
2021-12-01 20:46:09 GMT 49.992962 -2.117689 39,000 215 469 -64
2021-12-01 20:46:06 GMT 49.996902 -2.113567 39,000 215 469 -64
2021-12-01 20:46:04 GMT 50.004459 -2.105663 39,000 215 470 -64
2021-12-01 20:46:02 GMT 50.004459 -2.105663 39,000 215 470 -64
2021-12-01 20:46:00 GMT 50.009487 -2.100393 39,000 215 470 0
2021-12-01 20:45:57 GMT 50.014893 -2.094702 39,000 215 470 64
2021-12-01 20:45:54 GMT 50.019241 -2.090149 39,000 215 470 64
2021-12-01 20:45:52 GMT 50.023174 -2.085992 39,000 215 470 64
2021-12-01 20:45:50 GMT 50.026806 -2.082206 39,000 215 472 64
2021-12-01 20:45:48 GMT 50.036766 -2.071665 39,000 215 472 64
2021-12-01 20:45:45 GMT 50.040398 -2.067879 39,000 215 472 0
2021-12-01 20:45:43 GMT 50.040398 -2.067879 39,000 215 473 -64
2021-12-01 20:45:39 GMT 50.047565 -2.060382 39,000 215 474 -64
2021-12-01 20:45:36 GMT 50.056458 -2.051029 39,000 215 474 -64
2021-12-01 20:45:34 GMT 50.056458 -2.051029 39,000 215 474 -64
2021-12-01 20:45:31 GMT 50.060696 -2.046575 39,000 215 475 -64
2021-12-01 20:45:29 GMT 50.066254 -2.040710 39,000 215 475 -64
2021-12-01 20:45:25 GMT 50.073029 -2.033584 39,000 215 475 -64
2021-12-01 20:45:23 GMT 50.077194 -2.029218 39,000 215 475 -64
2021-12-01 20:45:20 GMT 50.081734 -2.024454 39,000 215 475 -64
2021-12-01 20:45:18 GMT 50.089928 -2.015769 39,000 215 476 -64
2021-12-01 20:45:16 GMT 50.089928 -2.015769 39,000 215 476 -64
2021-12-01 20:45:13 GMT 50.095367 -2.009992 39,000 215 476 0
2021-12-01 20:45:10 GMT 50.104843 -2.000018 39,000 215 474 0
2021-12-01 20:45:08 GMT 50.104843 -2.000018 39,000 215 475 64
2021-12-01 20:45:05 GMT 50.108829 -1.995800 39,000 215 475 64
2021-12-01 20:45:03 GMT 50.112808 -1.991561 39,000 215 475 64
2021-12-01 20:45:00 GMT 50.118137 -1.986002 39,000 215 475 0
2021-12-01 20:44:58 GMT 50.121723 -1.982216 39,000 215 475 0
2021-12-01 20:44:54 GMT 50.129032 -1.974496 39,000 215 475 0
2021-12-01 20:44:52 GMT 50.132401 -1.970889 39,000 215 474 0
2021-12-01 20:44:50 GMT 50.136017 -1.967059 39,000 215 474 0
2021-12-01 20:44:47 GMT 50.142719 -1.959946 39,000 215 474 0
2021-12-01 20:44:44 GMT 50.147415 -1.954988 39,000 215 472 -64
2021-12-01 20:44:42 GMT 50.150166 -1.952152 39,000 215 472 -64
2021-12-01 20:44:40 GMT 50.158081 -1.943689 39,000 215 472 64
2021-12-01 20:44:38 GMT 50.158081 -1.943689 39,000 215 472 0
2021-12-01 20:44:35 GMT 50.163483 -1.938003 39,000 215 472 64
2021-12-01 20:44:32 GMT 50.168926 -1.932258 39,000 215 472 64
2021-12-01 20:44:30 GMT 50.172729 -1.928245 39,000 215 470 64
2021-12-01 20:44:28 GMT 50.176483 -1.924270 39,000 215 472 64
2021-12-01 20:44:26 GMT 50.180241 -1.920232 39,000 215 470 64
2021-12-01 20:44:23 GMT 50.185455 -1.914739 39,000 215 470 64
2021-12-01 20:44:21 GMT 50.187973 -1.912055 39,000 215 470 0
2021-12-01 20:44:18 GMT 50.194427 -1.905188 39,000 215 470 0
2021-12-01 20:44:16 GMT 50.198044 -1.901358 39,000 215 470 0
2021-12-01 20:44:14 GMT 50.204865 -1.894177 39,000 215 470 -64
2021-12-01 20:44:12 GMT 50.204865 -1.894177 39,000 215 470 -64
2021-12-01 20:44:10 GMT 50.207008 -1.891875 39,000 215 470 -64
2021-12-01 20:44:08 GMT 50.212036 -1.886531 39,000 215 469 -64
2021-12-01 20:44:06 GMT 50.215988 -1.882348 39,000 215 469 -64
2021-12-01 20:44:04 GMT 50.220646 -1.877400 39,000 215 469 -64
2021-12-01 20:44:01 GMT 50.224548 -1.873169 39,000 215 469 -64
2021-12-01 20:43:59 GMT 50.228851 -1.868615 39,000 215 469 -64
2021-12-01 20:43:56 GMT 50.234940 -1.862183 39,000 215 469 -64
2021-12-01 20:43:53 GMT 50.238876 -1.857990 39,000 215 468 -64
2021-12-01 20:43:51 GMT 50.241409 -1.855353 39,000 215 468 0
2021-12-01 20:43:49 GMT 50.245693 -1.850751 39,000 215 467 64
2021-12-01 20:43:47 GMT 50.249588 -1.846570 39,000 215 467 64
2021-12-01 20:43:45 GMT 50.253159 -1.842812 39,000 215 466 64
2021-12-01 20:43:42 GMT 50.258495 -1.837092 39,000 215 466 64
2021-12-01 20:43:39 GMT 50.263474 -1.831822 39,000 215 466 64
2021-12-01 20:43:36 GMT 50.270599 -1.824250 39,000 215 464 -64
2021-12-01 20:43:33 GMT 50.273071 -1.821562 39,000 215 464 0
2021-12-01 20:43:31 GMT 50.276974 -1.817421 39,000 215 464 -64
2021-12-01 20:43:29 GMT 50.285110 -1.808769 39,000 215 465 -64
2021-12-01 20:43:27 GMT 50.285110 -1.808769 39,000 215 465 -64
2021-12-01 20:43:25 GMT 50.289032 -1.804579 39,000 215 465 -64
2021-12-01 20:43:23 GMT 50.291519 -1.801902 39,000 215 464 0
2021-12-01 20:43:21 GMT 50.295044 -1.798144 39,000 215 464 -64
2021-12-01 20:43:19 GMT 50.299301 -1.793590 39,000 215 464 0
2021-12-01 20:43:17 GMT 50.302139 -1.790555 39,000 215 464 0
2021-12-01 20:43:15 GMT 50.305325 -1.787208 39,000 215 464 0
2021-12-01 20:43:13 GMT 50.312759 -1.779207 39,000 215 464 64
2021-12-01 20:43:11 GMT 50.312759 -1.779207 39,000 215 464 64
2021-12-01 20:43:08 GMT 50.325157 -1.765978 39,000 215 464 64
2021-12-01 20:43:05 GMT 50.325157 -1.765978 39,000 215 465 64
2021-12-01 20:43:02 GMT 50.328693 -1.762192 39,000 215 464 64
2021-12-01 20:43:00 GMT 50.333313 -1.757307 39,000 215 465 0
2021-12-01 20:42:58 GMT 50.342892 -1.747049 39,000 215 465 64
2021-12-01 20:42:55 GMT 50.347874 -1.741778 39,000 215 465 -64
2021-12-01 20:42:52 GMT 50.347874 -1.741778 39,000 215 465 -64
2021-12-01 20:42:50 GMT 50.355331 -1.733816 39,000 215 466 -64
2021-12-01 20:42:47 GMT 50.355331 -1.733816 39,000 215 466 0
2021-12-01 20:42:45 GMT 50.359932 -1.728862 39,000 215 466 0
2021-12-01 20:42:42 GMT 50.365265 -1.723191 39,000 215 466 -64
2021-12-01 20:42:40 GMT 50.368450 -1.719732 39,000 215 465 -64
2021-12-01 20:42:38 GMT 50.375198 -1.712494 39,000 215 465 -64
2021-12-01 20:42:36 GMT 50.380508 -1.706815 39,000 215 465 0
2021-12-01 20:42:33 GMT 50.383347 -1.703772 39,000 215 465 64
2021-12-01 20:42:31 GMT 50.387630 -1.699243 39,000 215 465 64
2021-12-01 20:42:29 GMT 50.387630 -1.699243 39,000 215 465 0
2021-12-01 20:42:27 GMT 50.390121 -1.696593 39,000 215 465 -64
2021-12-01 20:42:25 GMT 50.394009 -1.692414 39,000 215 465 0
2021-12-01 20:42:23 GMT 50.397545 -1.688628 39,000 215 465 -64
2021-12-01 20:42:21 GMT 50.403225 -1.682541 39,000 215 465 64
2021-12-01 20:42:18 GMT 50.407104 -1.678378 39,000 215 465 64
2021-12-01 20:42:16 GMT 50.415237 -1.669625 39,000 215 465 128
2021-12-01 20:42:13 GMT 50.415237 -1.669625 39,000 215 465 128
2021-12-01 20:42:11 GMT 50.423756 -1.660494 39,000 215 465 128
2021-12-01 20:42:09 GMT 50.423756 -1.660494 39,000 215 465 128
2021-12-01 20:42:07 GMT 50.426971 -1.657056 39,000 215 465 128
2021-12-01 20:42:04 GMT 50.432602 -1.650985 39,000 215 465 64
2021-12-01 20:42:01 GMT 50.437954 -1.645277 39,000 215 466 0
2021-12-01 20:41:59 GMT 50.445774 -1.636889 39,000 215 466 -64
2021-12-01 20:41:56 GMT 50.445774 -1.636889 39,000 215 466 -64
2021-12-01 20:41:54 GMT 50.447914 -1.634587 39,000 215 466 0
2021-12-01 20:41:52 GMT 50.452515 -1.629590 39,000 215 466 0
2021-12-01 20:41:50 GMT 50.457504 -1.624242 39,000 215 466 -64
2021-12-01 20:41:47 GMT 50.465332 -1.615858 39,000 215 466 -64
2021-12-01 20:41:45 GMT 50.469589 -1.611232 39,000 215 467 0
2021-12-01 20:41:43 GMT 50.469589 -1.611232 39,000 215 467 0
2021-12-01 20:41:41 GMT 50.475998 -1.604365 39,000 215 468 -64
2021-12-01 20:41:39 GMT 50.475998 -1.604365 39,000 215 467 -64
2021-12-01 20:41:37 GMT 50.480301 -1.599739 39,000 215 468 -128
2021-12-01 20:41:34 GMT 50.490604 -1.588638 39,000 215 467 -128
2021-12-01 20:41:31 GMT 50.490604 -1.588638 39,000 215 467 -128
2021-12-01 20:41:29 GMT 50.494141 -1.584852 39,000 215 467 -128
2021-12-01 20:41:27 GMT 50.499123 -1.579433 39,000 215 467 -64
2021-12-01 20:41:24 GMT 50.502708 -1.575647 39,000 215 466 64
2021-12-01 20:41:22 GMT 50.506245 -1.571787 39,000 215 466 64
2021-12-01 20:41:20 GMT 50.509087 -1.568744 39,000 215 466 64
2021-12-01 20:41:18 GMT 50.514763 -1.562657 39,000 215 466 64
2021-12-01 20:41:15 GMT 50.519047 -1.558054 39,000 215 467 128
2021-12-01 20:41:12 GMT 50.524384 -1.552325 39,000 215 467 128
2021-12-01 20:41:10 GMT 50.529709 -1.546623 39,000 215 466 64
2021-12-01 20:41:07 GMT 50.533989 -1.542020 39,000 215 467 0
2021-12-01 20:41:04 GMT 50.539623 -1.535859 39,000 216 467 0
2021-12-01 20:41:01 GMT 50.547729 -1.526810 39,000 216 467 -64
2021-12-01 20:40:59 GMT 50.547729 -1.526810 39,000 216 467 -64
2021-12-01 20:40:57 GMT 50.556107 -1.517197 39,000 217 467 -64
2021-12-01 20:40:55 GMT 50.556107 -1.517197 39,000 218 467 64
2021-12-01 20:40:52 GMT 50.559586 -1.513150 39,000 217 467 64
2021-12-01 20:40:50 GMT 50.564064 -1.507874 39,000 217 467 64
2021-12-01 20:40:47 GMT 50.568161 -1.502900 39,000 219 467 0
2021-12-01 20:40:45 GMT 50.572254 -1.498001 39,000 218 466 64
2021-12-01 20:40:42 GMT 50.580093 -1.488358 39,000 219 466 -64
2021-12-01 20:40:40 GMT 50.580093 -1.488358 39,000 219 466 -64
2021-12-01 20:40:38 GMT 50.583801 -1.483674 39,000 219 466 64
2021-12-01 20:40:36 GMT 50.587154 -1.479443 39,000 222 464 0
2021-12-01 20:40:33 GMT 50.592773 -1.472168 39,000 221 466 128
2021-12-01 20:40:30 GMT 50.596710 -1.466892 39,000 221 465 64
2021-12-01 20:40:28 GMT 50.604843 -1.455837 39,000 222 465 -64
2021-12-01 20:40:25 GMT 50.604843 -1.455837 39,000 222 464 -64
2021-12-01 20:40:23 GMT 50.609665 -1.449111 39,000 222 464 0
2021-12-01 20:40:20 GMT 50.613510 -1.443690 39,000 222 464 64
2021-12-01 20:40:17 GMT 50.618591 -1.436535 39,000 222 464 0
2021-12-01 20:40:15 GMT 50.620857 -1.433419 39,000 222 464 64
2021-12-01 20:40:13 GMT 50.623718 -1.429379 39,000 222 464 -64
2021-12-01 20:40:11 GMT 50.631100 -1.419018 39,000 222 463 -192
2021-12-01 20:40:09 GMT 50.631100 -1.419018 39,000 222 463 -192
2021-12-01 20:40:07 GMT 50.633659 -1.415455 39,000 222 463 -192
2021-12-01 20:40:05 GMT 50.636826 -1.411001 39,000 222 463 -128
2021-12-01 20:40:03 GMT 50.640038 -1.406473 39,000 222 462 -128
2021-12-01 20:40:00 GMT 50.644180 -1.400685 39,000 222 462 -64
2021-12-01 20:39:58 GMT 50.647671 -1.395783 39,000 222 461 0
2021-12-01 20:39:56 GMT 50.651825 -1.389987 39,000 222 461 64
2021-12-01 20:39:53 GMT 50.655910 -1.384203 39,000 222 460 128
2021-12-01 20:39:51 GMT 50.659077 -1.379749 39,000 222 459 128
2021-12-01 20:39:49 GMT 50.662895 -1.374404 39,000 222 459 128
2021-12-01 20:39:47 GMT 50.669224 -1.365497 39,000 222 459 64
2021-12-01 20:39:45 GMT 50.669224 -1.365497 39,000 222 458 64
2021-12-01 20:39:42 GMT 50.672997 -1.360168 39,000 222 458 64
2021-12-01 20:39:40 GMT 50.675858 -1.356143 39,000 222 458 0
2021-12-01 20:39:38 GMT 50.680584 -1.349487 39,000 222 458 -64
2021-12-01 20:39:35 GMT 50.684692 -1.343672 39,000 222 458 -64
2021-12-01 20:39:33 GMT 50.688171 -1.338806 39,000 222 458 -64
2021-12-01 20:39:30 GMT 50.691338 -1.334381 39,000 222 458 -64
2021-12-01 20:39:28 GMT 50.695450 -1.328603 39,000 222 458 0
2021-12-01 20:39:25 GMT 50.701126 -1.320586 39,000 222 458 0
2021-12-01 20:39:22 GMT 50.704926 -1.315242 39,000 222 457 0
2021-12-01 20:39:20 GMT 50.708084 -1.310788 39,000 222 457 0
2021-12-01 20:39:18 GMT 50.713120 -1.303736 39,000 222 457 0
2021-12-01 20:39:15 GMT 50.720627 -1.293046 39,000 222 456 -64
2021-12-01 20:39:12 GMT 50.720627 -1.293046 39,000 222 456 -64
2021-12-01 20:39:10 GMT 50.724716 -1.287308 39,000 222 456 -64
2021-12-01 20:39:07 GMT 50.733215 -1.275379 39,000 222 456 -64
2021-12-01 20:39:04 GMT 50.733215 -1.275379 39,000 222 456 -64
2021-12-01 20:39:02 GMT 50.736328 -1.270925 39,000 222 456 -64
2021-12-01 20:39:00 GMT 50.743523 -1.260757 39,000 222 455 64
2021-12-01 20:38:58 GMT 50.743523 -1.260757 39,000 222 454 128
2021-12-01 20:38:55 GMT 50.746639 -1.256332 39,000 222 454 128
2021-12-01 20:38:53 GMT 50.750748 -1.250586 39,000 222 455 128
2021-12-01 20:38:50 GMT 50.755096 -1.244424 39,000 222 455 64
2021-12-01 20:38:48 GMT 50.757301 -1.241302 39,000 222 455 -64
2021-12-01 20:38:46 GMT 50.761368 -1.235591 39,000 222 455 -64
2021-12-01 20:38:44 GMT 50.765762 -1.229355 39,000 222 455 -64
2021-12-01 20:38:42 GMT 50.767639 -1.226757 39,000 222 455 -64
2021-12-01 20:38:40 GMT 50.770111 -1.223194 39,000 222 455 -64
2021-12-01 20:38:38 GMT 50.777618 -1.212579 39,000 222 455 0
2021-12-01 20:38:33 GMT 50.782349 -1.205902 39,000 222 455 0
2021-12-01 20:38:30 GMT 50.786407 -1.200182 39,000 222 455 -64
2021-12-01 20:38:28 GMT 50.790161 -1.194837 39,000 222 454 0
2021-12-01 20:38:25 GMT 50.793568 -1.189957 39,000 222 454 0
2021-12-01 20:38:23 GMT 50.798592 -1.182861 39,000 222 454 -64
2021-12-01 20:38:20 GMT 50.802017 -1.178061 39,000 222 454 0
2021-12-01 20:38:18 GMT 50.804180 -1.174927 39,000 222 454 64
2021-12-01 20:38:16 GMT 50.810715 -1.165664 39,000 222 453 128
2021-12-01 20:38:14 GMT 50.810715 -1.165664 39,000 222 453 64
2021-12-01 20:38:12 GMT 50.814468 -1.160320 39,000 222 453 64
2021-12-01 20:38:10 GMT 50.816986 -1.156831 39,000 222 453 0
2021-12-01 20:38:08 GMT 50.821636 -1.150208 39,000 222 453 0
2021-12-01 20:38:06 GMT 50.824448 -1.146215 39,000 222 453 0
2021-12-01 20:38:03 GMT 50.828480 -1.140442 39,000 222 453 0
2021-12-01 20:38:00 GMT 50.833145 -1.133819 39,000 222 453 0
2021-12-01 20:37:58 GMT 50.836578 -1.128998 39,000 222 453 0
2021-12-01 20:37:56 GMT 50.839371 -1.124985 39,000 222 453 0
2021-12-01 20:37:54 GMT 50.845596 -1.116152 39,000 222 453 0
2021-12-01 20:37:52 GMT 50.848068 -1.112588 39,000 222 453 0
2021-12-01 20:37:50 GMT 50.848068 -1.112588 39,000 222 453 0
2021-12-01 20:37:48 GMT 50.851822 -1.107318 39,000 222 453 0
2021-12-01 20:37:46 GMT 50.858364 -1.098022 39,000 222 453 -64
2021-12-01 20:37:42 GMT 50.863037 -1.091358 39,000 222 453 -64
2021-12-01 20:37:39 GMT 50.866421 -1.086502 39,000 223 453 -64
2021-12-01 20:37:36 GMT 50.870796 -1.080322 39,000 223 453 -64
2021-12-01 20:37:33 GMT 50.875126 -1.074142 39,000 223 453 -64
2021-12-01 20:37:30 GMT 50.879791 -1.067455 39,000 223 453 -64
2021-12-01 20:37:28 GMT 50.884483 -1.060791 39,000 223 453 0
2021-12-01 20:37:25 GMT 50.887600 -1.056366 39,000 223 453 64
2021-12-01 20:37:23 GMT 50.893841 -1.047516 39,000 223 453 64
2021-12-01 20:37:21 GMT 50.893841 -1.047516 39,000 223 453 64
2021-12-01 20:37:19 GMT 50.897564 -1.042175 39,000 223 453 0
2021-12-01 20:37:17 GMT 50.900681 -1.037750 39,000 223 453 -64
2021-12-01 20:37:15 GMT 50.901894 -1.035995 39,000 223 453 -64
2021-12-01 20:37:13 GMT 50.905975 -1.030191 39,000 223 453 -64
2021-12-01 20:37:11 GMT 50.909992 -1.024399 39,000 223 453 0
2021-12-01 20:37:08 GMT 50.913437 -1.019576 39,000 223 453 0
2021-12-01 20:37:06 GMT 50.920258 -1.009777 39,000 223 453 0
2021-12-01 20:37:04 GMT 50.920258 -1.009777 39,000 222 454 0
2021-12-01 20:37:02 GMT 50.922470 -1.006699 39,000 223 453 0
2021-12-01 20:37:00 GMT 50.927448 -0.999603 39,000 222 454 0
2021-12-01 20:36:57 GMT 50.931828 -0.993347 39,000 222 454 0
2021-12-01 20:36:54 GMT 50.935867 -0.987582 39,000 223 455 64
2021-12-01 20:36:52 GMT 50.937744 -0.984909 39,000 223 455 64
2021-12-01 20:36:50 GMT 50.941788 -0.979080 39,000 223 455 64
2021-12-01 20:36:48 GMT 50.945206 -0.974220 39,000 223 455 64
2021-12-01 20:36:46 GMT 50.948364 -0.969766 39,000 222 456 64
2021-12-01 20:36:44 GMT 50.953053 -0.963058 39,000 222 456 0
2021-12-01 20:36:41 GMT 50.955521 -0.959473 39,000 223 456 0
2021-12-01 20:36:39 GMT 50.963333 -0.948313 39,000 223 456 0
2021-12-01 20:36:37 GMT 50.963333 -0.948313 39,000 223 456 0
2021-12-01 20:36:34 GMT 50.967087 -0.942968 39,000 223 456 0
2021-12-01 20:36:32 GMT 50.970840 -0.937549 39,000 223 456 -64
2021-12-01 20:36:29 GMT 50.974934 -0.931778 39,000 223 456 -64
2021-12-01 20:36:27 GMT 50.978657 -0.926361 39,000 223 455 -64
2021-12-01 20:36:24 GMT 50.983337 -0.919660 39,000 223 455 0
2021-12-01 20:36:22 GMT 50.989269 -0.911179 39,000 223 455 -64
2021-12-01 20:36:20 GMT 50.992722 -0.906298 39,000 223 454 -64
2021-12-01 20:36:18 GMT 50.992722 -0.906298 39,000 223 454 -64
2021-12-01 20:36:15 GMT 50.996113 -0.901413 39,000 223 454 -64
2021-12-01 20:36:13 GMT 50.998901 -0.897390 39,000 223 453 0
2021-12-01 20:36:11 GMT 51.007599 -0.884919 39,000 223 453 64
2021-12-01 20:36:09 GMT 51.007599 -0.884919 39,000 223 453 64
2021-12-01 20:36:06 GMT 51.009800 -0.881805 39,000 223 453 64
2021-12-01 20:36:04 GMT 51.014736 -0.874710 39,000 223 452 64
2021-12-01 20:36:02 GMT 51.016937 -0.871632 39,000 223 451 64
2021-12-01 20:35:59 GMT 51.020973 -0.865784 39,000 223 451 0
2021-12-01 20:35:57 GMT 51.028061 -0.855597 39,000 223 451 -64
2021-12-01 20:35:55 GMT 51.028061 -0.855597 39,000 223 451 -64
2021-12-01 20:35:52 GMT 51.032703 -0.848923 39,000 223 451 64
2021-12-01 20:35:50 GMT 51.039501 -0.839157 39,000 223 451 64
2021-12-01 20:35:48 GMT 51.039501 -0.839157 39,000 223 451 -64
2021-12-01 20:35:45 GMT 51.043224 -0.833817 39,000 223 451 -64
2021-12-01 20:35:43 GMT 51.046345 -0.829391 39,000 223 451 -64
2021-12-01 20:35:41 GMT 51.048477 -0.826276 39,000 223 451 -64
2021-12-01 20:35:39 GMT 51.051884 -0.821457 39,000 223 451 0
2021-12-01 20:35:37 GMT 51.055607 -0.816116 39,000 223 451 0
2021-12-01 20:35:35 GMT 51.059601 -0.810316 39,000 223 451 -64
2021-12-01 20:35:32 GMT 51.062714 -0.805862 39,000 223 451 -64
2021-12-01 20:35:30 GMT 51.067657 -0.798810 39,000 223 451 -64
2021-12-01 20:35:27 GMT 51.071960 -0.792574 39,000 223 451 -64
2021-12-01 20:35:24 GMT 51.078140 -0.783667 39,000 223 451 -64
2021-12-01 20:35:22 GMT 51.078140 -0.783667 39,000 223 451 -64
2021-12-01 20:35:20 GMT 51.082191 -0.777893 39,000 223 452 0
2021-12-01 20:35:18 GMT 51.086517 -0.771713 39,000 223 452 64
2021-12-01 20:35:15 GMT 51.090199 -0.766296 39,000 223 452 0
2021-12-01 20:35:13 GMT 51.092617 -0.762711 39,000 225 451 64
2021-12-01 20:35:11 GMT 51.095642 -0.758057 39,000 225 451 64
2021-12-01 20:35:09 GMT 51.100021 -0.751005 39,000 227 449 64
2021-12-01 20:35:06 GMT 51.102020 -0.747681 39,000 228 449 64
2021-12-01 20:35:04 GMT 51.105373 -0.741882 39,000 228 449 64
2021-12-01 20:35:02 GMT 51.108120 -0.736923 39,000 230 448 64
2021-12-01 20:34:59 GMT 51.112404 -0.728912 39,000 238 444 -64
2021-12-01 20:34:56 GMT 51.116272 -0.721238 39,000 233 446 64
2021-12-01 20:34:54 GMT 51.122410 -0.708084 39,000 235 446 64
2021-12-01 20:34:52 GMT 51.122410 -0.708084 39,000 235 445 64
2021-12-01 20:34:49 GMT 51.124786 -0.702744 38,975 236 445 0
2021-12-01 20:34:47 GMT 51.126846 -0.697929 39,000 238 443 -64
2021-12-01 20:34:45 GMT 51.129299 -0.691910 39,000 238 443 -64
2021-12-01 20:34:43 GMT 51.131908 -0.685196 39,000 239 444 -64
2021-12-01 20:34:41 GMT 51.134422 -0.678482 39,000 240 444 -64
2021-12-01 20:34:38 GMT 51.137009 -0.671131 39,000 242 442 -64
2021-12-01 20:34:35 GMT 51.139542 -0.663681 39,000 243 441 -64
2021-12-01 20:34:33 GMT 51.141174 -0.658512 39,000 247 439 0
2021-12-01 20:34:31 GMT 51.143692 -0.650346 39,000 245 440 -64
2021-12-01 20:34:28 GMT 51.145386 -0.644482 39,000 246 439 0
2021-12-01 20:34:26 GMT 51.147175 -0.637970 39,000 247 439 0
2021-12-01 20:34:24 GMT 51.149231 -0.630303 39,000 247 439 64
2021-12-01 20:34:22 GMT 51.150833 -0.624365 39,000 247 439 0
2021-12-01 20:34:19 GMT 51.152710 -0.617239 39,000 247 439 0
2021-12-01 20:34:17 GMT 51.154312 -0.611300 39,000 247 439 0
2021-12-01 20:34:15 GMT 51.156345 -0.603561 39,000 247 439 64
2021-12-01 20:34:13 GMT 51.157471 -0.599423 39,000 248 439 64
2021-12-01 20:34:11 GMT 51.159073 -0.593484 39,000 248 439 64
2021-12-01 20:34:09 GMT 51.160816 -0.586929 39,000 248 439 64
2021-12-01 20:34:07 GMT 51.162399 -0.580978 39,000 248 439 64
2021-12-01 20:34:05 GMT 51.164429 -0.573293 39,000 247 440 64
2021-12-01 20:34:02 GMT 51.166821 -0.564346 39,000 248 440 64
2021-12-01 20:33:59 GMT 51.168404 -0.558395 39,000 248 440 64
2021-12-01 20:33:57 GMT 51.170315 -0.551224 39,000 248 440 64
2021-12-01 20:33:55 GMT 51.171898 -0.545273 39,000 248 441 0
2021-12-01 20:33:53 GMT 51.173805 -0.538101 39,000 248 441 0
2021-12-01 20:33:51 GMT 51.174591 -0.535064 39,000 248 441 -64
2021-12-01 20:33:49 GMT 51.176643 -0.527344 39,000 248 441 -64
2021-12-01 20:33:47 GMT 51.178272 -0.521317 39,000 248 442 -64
2021-12-01 20:33:45 GMT 51.179672 -0.515986 39,000 248 442 -64
2021-12-01 20:33:43 GMT 51.181274 -0.509973 39,000 248 442 -64
2021-12-01 20:33:41 GMT 51.183197 -0.502773 39,000 248 443 0
2021-12-01 20:33:39 GMT 51.184605 -0.497360 39,000 248 442 0
2021-12-01 20:33:37 GMT 51.186676 -0.489634 39,000 248 442 0
2021-12-01 20:33:35 GMT 51.187817 -0.485382 39,000 248 442 0
2021-12-01 20:33:33 GMT 51.190983 -0.473404 39,000 248 442 0
2021-12-01 20:33:31 GMT 51.190983 -0.473404 39,000 248 442 0
2021-12-01 20:33:28 GMT 51.193680 -0.463207 39,000 248 442 -64
2021-12-01 20:33:25 GMT 51.196243 -0.453631 39,000 248 442 -64
2021-12-01 20:33:23 GMT 51.197361 -0.449448 39,000 248 442 -64
2021-12-01 20:33:21 GMT 51.198441 -0.445243 39,000 248 442 -64
2021-12-01 20:33:19 GMT 51.200684 -0.436855 39,000 248 441 0
2021-12-01 20:33:17 GMT 51.203972 -0.424347 39,000 248 441 0
2021-12-01 20:33:15 GMT 51.203972 -0.424347 39,000 248 441 0
2021-12-01 20:33:13 GMT 51.205078 -0.420153 39,000 248 441 64
2021-12-01 20:33:11 GMT 51.207134 -0.412369 39,000 248 440 64
2021-12-01 20:33:09 GMT 51.209370 -0.403976 39,000 248 440 64
2021-12-01 20:33:06 GMT 51.210480 -0.399813 39,000 248 440 0
2021-12-01 20:33:04 GMT 51.212677 -0.391499 39,000 248 440 0
2021-12-01 20:33:02 GMT 51.214233 -0.385486 39,000 248 440 0
2021-12-01 20:32:59 GMT 51.216633 -0.376587 39,000 248 439 64
2021-12-01 20:32:56 GMT 51.218494 -0.369415 39,000 248 439 64
2021-12-01 20:32:54 GMT 51.220078 -0.363464 39,000 248 439 64
2021-12-01 20:32:52 GMT 51.222107 -0.355719 39,000 248 439 64
2021-12-01 20:32:50 GMT 51.223663 -0.349781 39,000 248 439 0
2021-12-01 20:32:48 GMT 51.225266 -0.343842 39,000 248 439 0
2021-12-01 20:32:46 GMT 51.228226 -0.332565 39,000 248 438 64
2021-12-01 20:32:44 GMT 51.228226 -0.332565 39,000 248 438 64
2021-12-01 20:32:42 GMT 51.231995 -0.318298 39,000 248 438 -64
2021-12-01 20:32:39 GMT 51.231995 -0.318298 39,000 248 439 -64
2021-12-01 20:32:37 GMT 51.233734 -0.311700 39,000 248 439 -64
2021-12-01 20:32:34 GMT 51.236206 -0.302198 39,000 248 439 -64
2021-12-01 20:32:31 GMT 51.239815 -0.288544 39,000 248 438 0
2021-12-01 20:32:28 GMT 51.242798 -0.277256 39,000 248 437 -64
2021-12-01 20:32:25 GMT 51.242798 -0.277256 39,000 248 437 0
2021-12-01 20:32:23 GMT 51.244354 -0.271244 39,000 248 437 0
2021-12-01 20:32:21 GMT 51.245773 -0.265961 39,000 248 437 64
2021-12-01 20:32:19 GMT 51.248241 -0.256424 39,000 248 437 64
2021-12-01 20:32:16 GMT 51.251541 -0.243926 39,000 248 437 0
2021-12-01 20:32:14 GMT 51.253738 -0.235612 39,000 248 437 0
2021-12-01 20:32:12 GMT 51.253738 -0.235612 39,000 248 437 0
2021-12-01 20:32:09 GMT 51.255295 -0.229674 39,000 248 437 64
2021-12-01 20:32:06 GMT 51.259964 -0.211858 39,000 248 437 0
2021-12-01 20:32:03 GMT 51.259964 -0.211858 39,000 248 437 -64
2021-12-01 20:32:01 GMT 51.262161 -0.203544 39,000 248 437 -64
2021-12-01 20:31:58 GMT 51.264313 -0.195230 39,000 248 437 -64
2021-12-01 20:31:55 GMT 51.266628 -0.186310 39,000 248 437 0
2021-12-01 20:31:53 GMT 51.268211 -0.180359 39,000 248 437 -64
2021-12-01 20:31:51 GMT 51.269302 -0.176227 39,000 248 437 0
2021-12-01 20:31:48 GMT 51.271610 -0.167313 39,000 248 437 0
2021-12-01 20:31:46 GMT 51.273193 -0.161362 39,000 248 437 0
2021-12-01 20:31:44 GMT 51.275055 -0.154266 39,000 248 437 0
2021-12-01 20:31:42 GMT 51.276592 -0.148315 39,000 248 437 0
2021-12-01 20:31:40 GMT 51.277847 -0.143509 39,000 248 437 64
2021-12-01 20:31:38 GMT 51.279877 -0.135770 39,000 248 437 64
2021-12-01 20:31:35 GMT 51.281898 -0.128098 39,000 248 437 64
2021-12-01 20:31:33 GMT 51.283760 -0.120926 39,000 248 437 64
2021-12-01 20:31:31 GMT 51.285782 -0.113204 39,000 248 438 64
2021-12-01 20:31:28 GMT 51.290451 -0.095314 39,000 248 438 64
2021-12-01 20:31:25 GMT 51.290451 -0.095314 39,000 248 438 64
2021-12-01 20:31:23 GMT 51.291534 -0.091171 39,000 248 438 64
2021-12-01 20:31:21 GMT 51.293072 -0.085144 39,000 248 438 64
2021-12-01 20:31:18 GMT 51.295120 -0.077424 39,000 248 439 64
2021-12-01 20:31:16 GMT 51.296356 -0.072599 39,000 248 439 64
2021-12-01 20:31:14 GMT 51.298233 -0.065473 39,000 248 439 64
2021-12-01 20:31:12 GMT 51.300110 -0.058272 39,000 248 440 0
2021-12-01 20:31:10 GMT 51.301346 -0.053447 39,000 248 440 -64
2021-12-01 20:31:08 GMT 51.303223 -0.046321 39,000 248 440 -64
2021-12-01 20:31:05 GMT 51.305595 -0.037308 39,000 248 441 -64
2021-12-01 20:31:02 GMT 51.307129 -0.031281 39,000 248 441 -64
2021-12-01 20:31:00 GMT 51.312157 -0.012054 39,000 248 441 -64
2021-12-01 20:30:57 GMT 51.312157 -0.012054 39,000 248 441 0
2021-12-01 20:30:54 GMT 51.314163 -0.004231 39,000 248 441 0
2021-12-01 20:30:51 GMT 51.316208 0.003586 39,000 248 441 0
2021-12-01 20:30:48 GMT 51.320114 0.018558 39,000 248 441 0
2021-12-01 20:30:46 GMT 51.320114 0.018558 39,000 248 441 -64
2021-12-01 20:30:44 GMT 51.321514 0.023956 39,000 248 441 -64
2021-12-01 20:30:42 GMT 51.324783 0.036596 39,000 248 440 0
2021-12-01 20:30:40 GMT 51.324783 0.036596 39,000 248 440 64
2021-12-01 20:30:38 GMT 51.326019 0.041421 39,000 248 440 0
2021-12-01 20:30:36 GMT 51.327896 0.048622 39,000 248 440 0
2021-12-01 20:30:34 GMT 51.329727 0.055822 39,000 248 440 0
2021-12-01 20:30:31 GMT 51.332081 0.064774 39,000 248 439 0
2021-12-01 20:30:28 GMT 51.333942 0.071945 39,000 248 438 64
2021-12-01 20:30:25 GMT 51.336594 0.082175 39,000 248 439 64
2021-12-01 20:30:23 GMT 51.337669 0.086288 39,000 248 439 64
2021-12-01 20:30:21 GMT 51.339661 0.094052 39,000 248 438 64
2021-12-01 20:30:18 GMT 51.341671 0.101852 39,000 248 438 64
2021-12-01 20:30:16 GMT 51.342930 0.106659 39,000 248 437 64
2021-12-01 20:30:14 GMT 51.345200 0.115579 39,000 248 437 64
2021-12-01 20:30:12 GMT 51.346279 0.119705 39,000 248 437 128
2021-12-01 20:30:10 GMT 51.347816 0.125656 38,975 248 435 192
2021-12-01 20:30:08 GMT 51.349354 0.131607 38,975 248 435 320
2021-12-01 20:30:06 GMT 51.351215 0.138779 38,975 248 435 320
2021-12-01 20:30:04 GMT 51.352890 0.145272 38,950 248 435 384
2021-12-01 20:30:01 GMT 51.355637 0.155961 38,925 248 434 512
2021-12-01 20:29:58 GMT 51.357193 0.161900 38,900 248 434 448
2021-12-01 20:29:55 GMT 51.359024 0.169026 38,850 248 434 512
2021-12-01 20:29:53 GMT 51.360535 0.174965 38,850 248 434 512
2021-12-01 20:29:51 GMT 51.362854 0.183868 38,850 248 434 512
2021-12-01 20:29:48 GMT 51.366028 0.196269 38,825 248 435 576
2021-12-01 20:29:46 GMT 51.366028 0.196269 38,825 248 435 576
2021-12-01 20:29:44 GMT 51.368019 0.204010 38,800 248 435 576
2021-12-01 20:29:42 GMT 51.369556 0.209961 38,775 248 435 576
2021-12-01 20:29:40 GMT 51.370487 0.213547 38,750 248 435 512
2021-12-01 20:29:38 GMT 51.372757 0.222399 38,750 248 435 512
2021-12-01 20:29:35 GMT 51.375050 0.231323 38,700 248 435 448
2021-12-01 20:29:32 GMT 51.378891 0.246227 38,700 248 435 448
2021-12-01 20:29:30 GMT 51.378891 0.246227 38,675 248 436 448
2021-12-01 20:29:27 GMT 51.383011 0.262299 38,650 248 436 448
2021-12-01 20:29:24 GMT 51.383011 0.262299 38,625 248 436 448
2021-12-01 20:29:22 GMT 51.384705 0.268868 38,625 248 436 512
2021-12-01 20:29:20 GMT 51.386688 0.276566 38,600 248 436 512
2021-12-01 20:29:17 GMT 51.388641 0.284308 38,525 248 435 384
2021-12-01 20:29:14 GMT 51.390972 0.293274 38,550 248 436 448
2021-12-01 20:29:12 GMT 51.392303 0.298635 38,525 248 435 384
2021-12-01 20:29:10 GMT 51.393391 0.302811 38,525 248 435 384
2021-12-01 20:29:08 GMT 51.395859 0.312271 38,500 248 435 384
2021-12-01 20:29:05 GMT 51.398438 0.322389 38,475 248 435 320
2021-12-01 20:29:02 GMT 51.400269 0.329590 38,475 248 435 320
2021-12-01 20:28:58 GMT 51.405586 0.350342 38,225 248 433 384
2021-12-01 20:28:55 GMT 51.405586 0.350342 38,425 248 435 384
2021-12-01 20:28:52 GMT 51.407730 0.358658 38,425 248 435 384
2021-12-01 20:28:50 GMT 51.409546 0.365829 38,400 248 435 384
2021-12-01 20:28:47 GMT 51.411686 0.374146 38,400 248 435 384
2021-12-01 20:28:45 GMT 51.414387 0.384827 38,375 248 434 384
2021-12-01 20:28:43 GMT 51.414387 0.384827 38,375 248 434 384
2021-12-01 20:28:41 GMT 51.415787 0.390163 38,350 248 434 384
2021-12-01 20:28:39 GMT 51.416977 0.394914 38,350 248 434 384
2021-12-01 20:28:37 GMT 51.420437 0.408554 38,325 248 434 320
2021-12-01 20:28:35 GMT 51.420437 0.408554 38,325 248 434 320
2021-12-01 20:28:32 GMT 51.422745 0.417480 38,300 248 434 320
2021-12-01 20:28:30 GMT 51.424068 0.422821 38,300 248 434 384
2021-12-01 20:28:27 GMT 51.426491 0.432281 38,275 248 433 384
2021-12-01 20:28:24 GMT 51.428741 0.441160 38,275 248 433 384
2021-12-01 20:28:22 GMT 51.430122 0.446548 38,275 248 433 384
2021-12-01 20:28:20 GMT 51.432083 0.454225 38,250 248 433 384
2021-12-01 20:28:17 GMT 51.433914 0.461352 38,225 248 433 320
2021-12-01 20:28:15 GMT 51.435242 0.466690 38,225 248 433 320
2021-12-01 20:28:13 GMT 51.437057 0.473862 38,225 248 434 320
2021-12-01 20:28:11 GMT 51.441422 0.491044 38,200 248 434 320
2021-12-01 20:28:08 GMT 51.442932 0.496983 38,175 248 434 320
2021-12-01 20:28:05 GMT 51.442932 0.496983 38,175 248 434 320
2021-12-01 20:28:03 GMT 51.444923 0.504684 38,150 248 434 384
2021-12-01 20:28:00 GMT 51.446869 0.512423 38,150 248 434 384
2021-12-01 20:27:57 GMT 51.450047 0.524902 38,125 248 434 384
2021-12-01 20:27:54 GMT 51.451534 0.530853 38,100 248 434 384
2021-12-01 20:27:52 GMT 51.453072 0.536804 38,100 248 433 384
2021-12-01 20:27:50 GMT 51.455166 0.545120 38,075 248 433 384
2021-12-01 20:27:47 GMT 51.457867 0.555801 38,075 248 433 384
2021-12-01 20:27:45 GMT 51.457867 0.555801 38,050 248 433 384
2021-12-01 20:27:43 GMT 51.459682 0.562897 38,050 248 432 384
2021-12-01 20:27:41 GMT 51.461060 0.568246 38,025 248 432 384
2021-12-01 20:27:39 GMT 51.462570 0.574184 38,025 248 432 384
2021-12-01 20:27:37 GMT 51.464035 0.580123 38,000 248 433 192
2021-12-01 20:27:35 GMT 51.465500 0.585764 38,000 248 433 128
2021-12-01 20:27:33 GMT 51.467503 0.593719 38,000 248 433 64
2021-12-01 20:27:30 GMT 51.472019 0.611572 38,000 248 432 64
2021-12-01 20:27:27 GMT 51.472019 0.611572 38,000 248 432 64
2021-12-01 20:27:24 GMT 51.473969 0.619243 38,000 249 432 64
2021-12-01 20:27:22 GMT 51.474998 0.623398 38,000 249 432 64
2021-12-01 20:27:20 GMT 51.476814 0.630569 38,000 249 432 0
2021-12-01 20:27:18 GMT 51.478024 0.635300 38,000 249 432 0
2021-12-01 20:27:16 GMT 51.480350 0.644531 38,000 249 432 0
2021-12-01 20:27:13 GMT 51.482212 0.651855 38,000 249 432 0
2021-12-01 20:27:11 GMT 51.483982 0.659027 38,000 249 432 0
2021-12-01 20:27:08 GMT 51.485916 0.666677 38,000 249 432 64
2021-12-01 20:27:05 GMT 51.487892 0.674438 38,000 248 431 64
2021-12-01 20:27:03 GMT 51.490128 0.683305 38,000 249 431 0
2021-12-01 20:27:00 GMT 51.491913 0.690431 38,000 249 431 0
2021-12-01 20:26:57 GMT 51.494129 0.699310 38,000 249 431 -64
2021-12-01 20:26:55 GMT 51.496353 0.708173 38,000 249 431 -64
2021-12-01 20:26:52 GMT 51.497715 0.713501 38,000 249 431 0
2021-12-01 20:26:50 GMT 51.499485 0.720596 38,000 249 430 -64
2021-12-01 20:26:48 GMT 51.500603 0.725021 38,000 249 430 -64
2021-12-01 20:26:46 GMT 51.502464 0.732422 38,000 249 430 -64
2021-12-01 20:26:43 GMT 51.504230 0.739441 38,000 249 430 -64
2021-12-01 20:26:41 GMT 51.506001 0.746536 38,000 249 429 0
2021-12-01 20:26:39 GMT 51.508934 0.758133 38,000 248 429 0
2021-12-01 20:26:37 GMT 51.508934 0.758133 38,000 248 429 0
2021-12-01 20:26:35 GMT 51.510315 0.763624 38,000 249 428 0
2021-12-01 20:26:32 GMT 51.512238 0.771332 38,000 249 428 0
2021-12-01 20:26:30 GMT 51.514614 0.780716 38,000 249 428 0
2021-12-01 20:26:27 GMT 51.518150 0.794830 38,000 249 428 64
2021-12-01 20:26:25 GMT 51.518150 0.794830 38,000 249 428 0
2021-12-01 20:26:22 GMT 51.521851 0.809574 38,000 249 428 0
2021-12-01 20:26:19 GMT 51.521851 0.809574 38,000 249 428 0
2021-12-01 20:26:17 GMT 51.524063 0.818405 38,000 249 429 0
2021-12-01 20:26:15 GMT 51.525227 0.823135 38,000 249 429 0
2021-12-01 20:26:12 GMT 51.527321 0.831451 38,000 249 429 0
2021-12-01 20:26:10 GMT 51.528305 0.835481 38,000 249 429 0
2021-12-01 20:26:08 GMT 51.530365 0.843646 38,000 249 429 0
2021-12-01 20:26:06 GMT 51.531876 0.849585 38,000 249 429 64
2021-12-01 20:26:03 GMT 51.533981 0.858047 38,000 249 431 0
2021-12-01 20:26:01 GMT 51.535606 0.864487 38,000 249 431 0
2021-12-01 20:25:59 GMT 51.537376 0.871582 38,000 249 432 -64
2021-12-01 20:25:56 GMT 51.539612 0.880539 38,000 249 432 -64
2021-12-01 20:25:53 GMT 51.541473 0.888138 38,000 249 432 -64
2021-12-01 20:25:51 GMT 51.542965 0.893936 38,000 249 432 -64
2021-12-01 20:25:48 GMT 51.546825 0.909424 38,000 249 432 0
2021-12-01 20:25:46 GMT 51.546825 0.909424 38,000 249 432 0
2021-12-01 20:25:44 GMT 51.549362 0.919660 38,000 249 432 0
2021-12-01 20:25:42 GMT 51.549362 0.919660 38,000 249 432 0
2021-12-01 20:25:40 GMT 51.551147 0.926860 38,000 249 432 0
2021-12-01 20:25:38 GMT 51.552612 0.932724 38,000 249 432 64
2021-12-01 20:25:35 GMT 51.554832 0.941696 38,000 249 432 0
2021-12-01 20:25:32 GMT 51.557053 0.950540 38,000 249 432 0
2021-12-01 20:25:30 GMT 51.558517 0.956404 38,000 249 431 0
2021-12-01 20:25:28 GMT 51.560188 0.963135 38,000 249 432 -64
2021-12-01 20:25:25 GMT 51.564468 0.980307 38,000 249 431 -64
2021-12-01 20:25:22 GMT 51.566658 0.989227 38,000 249 431 -64
2021-12-01 20:25:20 GMT 51.566658 0.989227 38,000 249 431 -64
2021-12-01 20:25:17 GMT 51.568150 0.995026 38,000 249 431 -64
2021-12-01 20:25:15 GMT 51.569458 1.000498 38,000 249 430 0
2021-12-01 20:25:13 GMT 51.571079 1.007004 38,000 249 430 -64
2021-12-01 20:25:11 GMT 51.572571 1.012955 38,000 249 430 -64
2021-12-01 20:25:09 GMT 51.574493 1.020689 38,000 249 430 -64
2021-12-01 20:25:06 GMT 51.575912 1.026405 38,000 249 430 -64
2021-12-01 20:25:04 GMT 51.577698 1.033680 38,000 249 430 0
2021-12-01 20:25:01 GMT 51.582047 1.051199 38,000 249 429 0
2021-12-01 20:24:59 GMT 51.582047 1.051199 38,000 249 429 0
2021-12-01 20:24:56 GMT 51.583138 1.055603 38,000 249 429 0
2021-12-01 20:24:54 GMT 51.585022 1.063224 38,000 249 429 0
2021-12-01 20:24:52 GMT 51.586212 1.067975 38,000 249 429 0
2021-12-01 20:24:50 GMT 51.587746 1.074219 38,000 249 429 0
2021-12-01 20:24:48 GMT 51.589283 1.080399 38,000 249 429 64
2021-12-01 20:24:46 GMT 51.592300 1.092620 38,000 249 429 64
2021-12-01 20:24:44 GMT 51.592300 1.092620 38,000 249 429 64
2021-12-01 20:24:42 GMT 51.593704 1.098175 38,000 249 429 64
2021-12-01 20:24:40 GMT 51.595276 1.104646 38,000 249 430 64
2021-12-01 20:24:38 GMT 51.596786 1.110584 38,000 249 430 64
2021-12-01 20:24:36 GMT 51.597801 1.114731 38,000 249 430 64
2021-12-01 20:24:34 GMT 51.599670 1.122313 38,000 249 430 64
2021-12-01 20:24:31 GMT 51.601181 1.128326 38,000 249 431 64
2021-12-01 20:24:29 GMT 51.604553 1.142044 38,000 249 431 0
2021-12-01 20:24:27 GMT 51.607159 1.152649 38,000 249 431 0
2021-12-01 20:24:24 GMT 51.607159 1.152649 38,000 249 430 -64
2021-12-01 20:24:22 GMT 51.608650 1.158676 38,000 249 431 0
2021-12-01 20:24:20 GMT 51.609695 1.162843 38,000 249 431 0
2021-12-01 20:24:18 GMT 51.610840 1.167520 38,000 249 431 0
2021-12-01 20:24:16 GMT 51.613026 1.176529 38,000 249 431 64
2021-12-01 20:24:14 GMT 51.614513 1.182480 38,000 249 431 64
2021-12-01 20:24:12 GMT 51.615955 1.188431 38,000 249 431 0
2021-12-01 20:24:10 GMT 51.617523 1.194763 38,000 249 431 -64
2021-12-01 20:24:07 GMT 51.619171 1.201477 38,000 249 431 -64
2021-12-01 20:24:04 GMT 51.621822 1.212234 38,000 249 431 -128
2021-12-01 20:24:01 GMT 51.623978 1.221041 38,000 249 430 -64
2021-12-01 20:23:58 GMT 51.626152 1.229858 38,000 249 430 0
2021-12-01 20:23:55 GMT 51.628601 1.239822 38,000 249 430 64
2021-12-01 20:23:52 GMT 51.630432 1.247245 38,000 249 429 64
2021-12-01 20:23:50 GMT 51.631741 1.252518 38,000 249 429 64
2021-12-01 20:23:48 GMT 51.633041 1.257786 38,000 249 429 64
2021-12-01 20:23:46 GMT 51.634460 1.263725 38,000 249 428 0
2021-12-01 20:23:44 GMT 51.636349 1.271439 38,000 249 428 0
2021-12-01 20:23:41 GMT 51.638855 1.281466 38,000 249 428 0
2021-12-01 20:23:38 GMT 51.640594 1.288592 38,000 249 428 64
2021-12-01 20:23:35 GMT 51.642773 1.297531 38,000 249 429 128
2021-12-01 20:23:32 GMT 51.644943 1.306408 38,000 249 429 64
2021-12-01 20:23:30 GMT 51.646729 1.313534 38,000 249 429 -64
2021-12-01 20:23:27 GMT 51.648033 1.318893 38,000 249 430 0
2021-12-01 20:23:25 GMT 51.649887 1.326376 38,000 249 430 -64
2021-12-01 20:23:22 GMT 51.652222 1.336101 38,000 249 429 -64
2021-12-01 20:23:20 GMT 51.653687 1.342039 38,000 249 430 -64
2021-12-01 20:23:18 GMT 51.654831 1.346642 38,000 249 430 0
2021-12-01 20:23:16 GMT 51.656891 1.355104 38,000 249 430 -64
2021-12-01 20:23:13 GMT 51.661068 1.372375 38,000 249 430 0
2021-12-01 20:23:10 GMT 51.661068 1.372375 38,000 249 430 64
2021-12-01 20:23:08 GMT 51.661835 1.375370 38,000 249 430 0
2021-12-01 20:23:06 GMT 51.663998 1.384277 38,000 249 431 -64
2021-12-01 20:23:03 GMT 51.665722 1.391449 38,000 249 431 -64
2021-12-01 20:23:00 GMT 51.668049 1.400909 38,000 249 430 -64
2021-12-01 20:22:58 GMT 51.669067 1.405062 38,000 249 430 -64
2021-12-01 20:22:56 GMT 51.671261 1.414032 38,000 249 430 -64
2021-12-01 20:22:53 GMT 51.673096 1.421468 38,000 249 430 -64
2021-12-01 20:22:50 GMT 51.675312 1.430664 38,000 249 429 64
2021-12-01 20:22:48 GMT 51.678864 1.445296 38,000 249 429 0
2021-12-01 20:22:46 GMT 51.680244 1.450882 38,000 249 429 64
2021-12-01 20:22:43 GMT 51.680244 1.450882 38,000 249 429 64
2021-12-01 20:22:40 GMT 51.682804 1.461411 38,000 249 428 0
2021-12-01 20:22:38 GMT 51.683853 1.465710 38,000 249 428 64
2021-12-01 20:22:36 GMT 51.686253 1.475677 38,000 249 428 64
2021-12-01 20:22:33 GMT 51.687370 1.480255 38,000 249 428 64
2021-12-01 20:22:30 GMT 51.689465 1.488800 38,000 249 428 64
2021-12-01 20:22:28 GMT 51.691315 1.496516 38,000 249 428 64
2021-12-01 20:22:26 GMT 51.692780 1.502455 38,000 249 428 -64
2021-12-01 20:22:23 GMT 51.695023 1.511882 38,000 249 428 -64
2021-12-01 20:22:20 GMT 51.697083 1.520270 38,000 249 428 64
2021-12-01 20:22:18 GMT 51.698822 1.527322 38,000 249 428 0
2021-12-01 20:22:15 GMT 51.702126 1.540985 38,000 249 428 0
2021-12-01 20:22:13 GMT 51.702126 1.540985 38,000 249 428 0
2021-12-01 20:22:10 GMT 51.704964 1.552734 38,000 249 428 0
2021-12-01 20:22:07 GMT 51.706127 1.557617 38,000 249 428 0
2021-12-01 20:22:05 GMT 51.707703 1.563993 38,000 249 427 64
2021-12-01 20:22:03 GMT 51.709167 1.570006 38,000 249 427 64
2021-12-01 20:22:00 GMT 51.711575 1.580048 38,000 249 427 0
2021-12-01 20:21:57 GMT 51.713856 1.589508 38,000 249 427 -64
2021-12-01 20:21:54 GMT 51.716091 1.598816 38,000 249 427 -64
2021-12-01 20:21:51 GMT 51.717861 1.606064 38,000 249 427 0
2021-12-01 20:21:49 GMT 51.719147 1.611427 38,000 249 427 0
2021-12-01 20:21:47 GMT 51.720699 1.617737 38,000 249 427 0
2021-12-01 20:21:45 GMT 51.721710 1.622042 38,000 249 426 0
2021-12-01 20:21:43 GMT 51.723129 1.627981 38,000 249 426 0
2021-12-01 20:21:41 GMT 51.725372 1.637111 38,000 249 425 0
2021-12-01 20:21:39 GMT 51.726379 1.641464 38,000 249 425 0
2021-12-01 20:21:37 GMT 51.727867 1.647415 38,000 249 425 0
2021-12-01 20:21:34 GMT 51.729996 1.656337 38,000 249 425 0
2021-12-01 20:21:31 GMT 51.732384 1.666336 38,000 249 426 64
2021-12-01 20:21:29 GMT 51.733063 1.669105 38,000 249 426 64
2021-12-01 20:21:27 GMT 51.735226 1.678009 37,975 249 425 0
2021-12-01 20:21:24 GMT 51.737686 1.688183 38,000 249 426 0
2021-12-01 20:21:21 GMT 51.739380 1.695309 38,000 249 426 64
2021-12-01 20:21:19 GMT 51.740799 1.701248 37,975 249 425 192
2021-12-01 20:21:16 GMT 51.742626 1.708832 37,450 249 425 768
2021-12-01 20:21:13 GMT 51.745464 1.720734 37,950 249 425 640
2021-12-01 20:21:10 GMT 51.748398 1.732871 37,900 249 425 1024
2021-12-01 20:21:08 GMT 51.748398 1.732871 37,875 249 425 1088
2021-12-01 20:21:05 GMT 51.750458 1.741333 37,800 249 426 1152
2021-12-01 20:21:02 GMT 51.754120 1.756773 37,750 249 427 1408
2021-12-01 20:20:57 GMT 51.756268 1.765671 37,650 249 428 1536
2021-12-01 20:20:55 GMT 51.758266 1.773987 37,575 249 429 1536
2021-12-01 20:20:52 GMT 51.759712 1.779938 37,325 249 434 1216
2021-12-01 20:20:49 GMT 51.761856 1.788916 37,425 249 431 1536
2021-12-01 20:20:47 GMT 51.763275 1.794928 37,425 249 432 1472
2021-12-01 20:20:45 GMT 51.764740 1.800941 37,375 249 433 1408
2021-12-01 20:20:43 GMT 51.766041 1.806335 37,300 249 434 1216
2021-12-01 20:20:41 GMT 51.770142 1.823582 37,225 249 435 960
2021-12-01 20:20:38 GMT 51.770142 1.823582 37,200 249 435 960
2021-12-01 20:20:35 GMT 51.772045 1.831436 37,175 249 435 896
2021-12-01 20:20:33 GMT 51.775726 1.846817 37,125 249 436 704
2021-12-01 20:20:30 GMT 51.775726 1.846817 37,125 249 436 704
2021-12-01 20:20:28 GMT 51.777821 1.855545 37,075 250 435 704
2021-12-01 20:20:25 GMT 51.779591 1.863098 37,050 250 435 704
2021-12-01 20:20:22 GMT 51.782043 1.873392 37,025 249 436 640
2021-12-01 20:20:19 GMT 51.783314 1.878586 37,000 249 436 640
2021-12-01 20:20:17 GMT 51.785130 1.886139 36,975 249 436 640
2021-12-01 20:20:15 GMT 51.786621 1.892469 36,950 249 436 640
2021-12-01 20:20:13 GMT 51.790192 1.907316 36,900 249 436 640
2021-12-01 20:20:10 GMT 51.791134 1.911316 36,900 249 436 640
2021-12-01 20:20:08 GMT 51.791134 1.911316 36,875 249 436 640
2021-12-01 20:20:06 GMT 51.793030 1.919267 36,850 249 436 640
2021-12-01 20:20:04 GMT 51.794495 1.925502 36,750 250 435 576
2021-12-01 20:20:01 GMT 51.799000 1.944275 36,775 250 435 576
2021-12-01 20:19:58 GMT 51.799000 1.944275 36,750 250 435 576
2021-12-01 20:19:55 GMT 51.800858 1.952152 36,750 250 435 576
2021-12-01 20:19:52 GMT 51.803375 1.962841 36,725 249 434 576
2021-12-01 20:19:49 GMT 51.807770 1.981176 36,675 249 434 576
2021-12-01 20:19:46 GMT 51.807770 1.981176 36,650 249 434 576
2021-12-01 20:19:43 GMT 51.809509 1.988451 36,625 249 434 576
2021-12-01 20:19:41 GMT 51.811012 1.994858 36,625 249 434 512
2021-12-01 20:19:38 GMT 51.815388 2.013168 36,600 250 433 448
2021-12-01 20:19:35 GMT 51.815388 2.013168 36,575 250 433 384
2021-12-01 20:19:33 GMT 51.819214 2.029427 36,550 250 432 448
2021-12-01 20:19:30 GMT 51.819214 2.029427 36,525 250 432 576
2021-12-01 20:19:27 GMT 51.821346 2.038498 36,500 250 432 640
2021-12-01 20:19:24 GMT 51.823067 2.045670 36,475 249 431 640
2021-12-01 20:19:22 GMT 51.824661 2.052291 36,375 249 431 576
2021-12-01 20:19:19 GMT 51.828423 2.068176 36,425 249 431 640
2021-12-01 20:19:17 GMT 51.828423 2.068176 36,400 249 431 576
2021-12-01 20:19:14 GMT 51.830658 2.077455 36,375 249 431 576
2021-12-01 20:19:11 GMT 51.832146 2.083740 36,350 250 430 576
2021-12-01 20:19:08 GMT 51.834751 2.094879 36,325 250 430 576
2021-12-01 20:19:05 GMT 51.836838 2.103882 36,300 251 429 640
2021-12-01 20:19:02 GMT 51.838715 2.112344 36,275 251 429 704
2021-12-01 20:18:59 GMT 51.840664 2.121353 36,200 251 429 832
2021-12-01 20:18:57 GMT 51.841969 2.127457 36,175 252 428 960
2021-12-01 20:18:54 GMT 51.845459 2.144241 36,075 252 428 1088
2021-12-01 20:18:51 GMT 51.845459 2.144241 36,075 253 429 1408
2021-12-01 20:18:48 GMT 51.847416 2.154160 36,000 253 429 1408
2021-12-01 20:18:45 GMT 51.849323 2.163925 35,975 253 430 1472
2021-12-01 20:18:43 GMT 51.852444 2.180862 35,900 254 430 1344
2021-12-01 20:18:40 GMT 51.852444 2.180862 35,850 255 430 1088
2021-12-01 20:18:37 GMT 51.854675 2.193527 35,775 255 430 960
2021-12-01 20:18:34 GMT 51.855148 2.196598 35,750 256 430 832
2021-12-01 20:18:32 GMT 51.856384 2.204095 35,700 257 429 768
2021-12-01 20:18:29 GMT 51.858032 2.215007 35,700 257 430 768
2021-12-01 20:18:27 GMT 51.858913 2.220840 35,650 257 429 768
2021-12-01 20:18:24 GMT 51.860588 2.232056 35,475 257 429 704
2021-12-01 20:18:21 GMT 51.862885 2.247595 35,575 257 429 768
2021-12-01 20:18:18 GMT 51.862885 2.247595 35,550 257 429 704
2021-12-01 20:18:15 GMT 51.864349 2.257319 35,525 257 429 704
2021-12-01 20:18:13 GMT 51.866638 2.272537 35,475 257 429 704
2021-12-01 20:18:10 GMT 51.867992 2.281647 35,375 257 429 832
2021-12-01 20:18:07 GMT 51.867992 2.281647 35,375 257 429 896
2021-12-01 20:18:04 GMT 51.869431 2.291169 35,350 257 429 1024
2021-12-01 20:18:01 GMT 51.870785 2.300339 35,300 257 429 1088
2021-12-01 20:17:58 GMT 51.872089 2.309265 34,875 257 426 640
2021-12-01 20:17:55 GMT 51.873642 2.319897 35,200 257 430 1344
2021-12-01 20:17:53 GMT 51.874695 2.326736 35,125 257 430 1408
2021-12-01 20:17:50 GMT 51.875885 2.334892 34,975 257 431 1216
2021-12-01 20:17:47 GMT 51.877068 2.342987 34,975 257 431 1280
2021-12-01 20:17:44 GMT 51.878746 2.354279 34,975 257 431 1216
2021-12-01 20:17:41 GMT 51.880047 2.363052 34,925 257 431 832
2021-12-01 20:17:38 GMT 51.881165 2.370529 34,875 257 431 576
2021-12-01 20:17:36 GMT 51.882202 2.377501 34,850 257 430 448
2021-12-01 20:17:33 GMT 51.883774 2.388077 34,825 257 429 384
2021-12-01 20:17:30 GMT 51.885132 2.397469 34,800 257 429 384
2021-12-01 20:17:27 GMT 51.888149 2.418060 34,800 257 428 384
2021-12-01 20:17:24 GMT 51.888149 2.418060 34,775 257 428 448
2021-12-01 20:17:21 GMT 51.889080 2.424240 34,750 257 427 704
2021-12-01 20:17:18 GMT 51.890625 2.434808 34,700 257 427 768
2021-12-01 20:17:15 GMT 51.893597 2.454973 34,675 257 426 768
2021-12-01 20:17:12 GMT 51.893597 2.454973 34,650 257 426 768
2021-12-01 20:17:09 GMT 51.894760 2.462742 34,625 257 426 768
2021-12-01 20:17:07 GMT 51.895828 2.470119 34,600 257 426 640
2021-12-01 20:17:04 GMT 51.896988 2.477951 34,575 257 425 576
2021-12-01 20:17:01 GMT 51.898342 2.487226 34,500 257 425 576
2021-12-01 20:16:58 GMT 51.899918 2.497940 34,500 257 425 576
2021-12-01 20:16:56 GMT 51.901089 2.505981 34,475 257 424 640
2021-12-01 20:16:53 GMT 51.902252 2.513962 34,425 257 423 768
2021-12-01 20:16:50 GMT 51.903305 2.521362 34,425 257 423 768
2021-12-01 20:16:48 GMT 51.904404 2.528763 34,400 257 423 896
2021-12-01 20:16:46 GMT 51.905319 2.534943 34,225 257 423 1344
2021-12-01 20:16:43 GMT 51.906631 2.544120 34,275 257 423 1024
2021-12-01 20:16:40 GMT 51.907791 2.551956 34,275 257 423 1152
2021-12-01 20:16:38 GMT 51.908890 2.559509 34,250 257 423 1216
2021-12-01 20:16:36 GMT 51.909702 2.564994 34,125 257 423 1472
2021-12-01 20:16:33 GMT 51.911041 2.574234 34,075 257 423 1600
2021-12-01 20:16:30 GMT 51.912216 2.582258 34,050 257 424 1600
2021-12-01 20:16:27 GMT 51.913658 2.592146 33,925 257 428 1536
2021-12-01 20:16:24 GMT 51.915024 2.601395 33,825 257 425 1536
2021-12-01 20:16:22 GMT 51.917477 2.618120 33,750 257 426 1536
2021-12-01 20:16:19 GMT 51.917477 2.618120 33,750 257 426 1536
2021-12-01 20:16:16 GMT 51.920132 2.636483 33,600 257 427 1600
2021-12-01 20:16:13 GMT 51.920132 2.636483 33,550 257 428 1536
2021-12-01 20:16:10 GMT 51.921341 2.644806 33,525 257 428 1472
2021-12-01 20:16:08 GMT 51.922272 2.651315 33,475 257 428 1408
2021-12-01 20:16:06 GMT 51.922806 2.654800 33,450 257 428 1216
2021-12-01 20:16:03 GMT 51.924408 2.666016 33,350 257 428 896
2021-12-01 20:16:00 GMT 51.926010 2.677002 33,325 257 428 896
2021-12-01 20:15:57 GMT 51.928757 2.695847 33,275 257 427 640
2021-12-01 20:15:54 GMT 51.928757 2.695847 33,250 257 428 640
2021-12-01 20:15:51 GMT 51.929855 2.703323 33,200 257 427 768
2021-12-01 20:15:48 GMT 51.931274 2.713318 33,175 257 426 768
2021-12-01 20:15:46 GMT 51.932007 2.718277 33,100 257 424 832
2021-12-01 20:15:43 GMT 51.934978 2.738656 33,100 257 425 768
2021-12-01 20:15:40 GMT 51.934978 2.738656 33,075 257 425 768
2021-12-01 20:15:38 GMT 51.935863 2.744856 33,050 257 424 768
2021-12-01 20:15:36 GMT 51.936493 2.749176 32,825 257 421 768
2021-12-01 20:15:33 GMT 51.937546 2.756577 33,000 257 423 832
2021-12-01 20:15:31 GMT 51.938782 2.765198 32,950 258 418 768
2021-12-01 20:15:28 GMT 51.940289 2.775617 32,900 257 422 832
2021-12-01 20:15:26 GMT 51.942055 2.787938 32,875 257 421 704
2021-12-01 20:15:23 GMT 51.942055 2.787938 32,875 257 421 768
2021-12-01 20:15:21 GMT 51.943268 2.796491 32,825 257 419 704
2021-12-01 20:15:18 GMT 51.944664 2.805987 32,800 257 419 704
2021-12-01 20:15:16 GMT 51.945362 2.810852 32,775 257 419 704
2021-12-01 20:15:13 GMT 51.946884 2.821579 32,700 257 418 832
2021-12-01 20:15:10 GMT 51.948441 2.832489 32,700 258 418 832
2021-12-01 20:15:06 GMT 51.949860 2.842255 32,650 258 418 768
2021-12-01 20:15:03 GMT 51.952343 2.859898 32,600 257 416 704
2021-12-01 20:15:01 GMT 51.952343 2.859898 32,550 257 417 704
2021-12-01 20:14:58 GMT 51.953476 2.867813 32,475 257 414 1344
2021-12-01 20:14:56 GMT 51.954067 2.872062 32,525 257 416 832
2021-12-01 20:14:53 GMT 51.955215 2.879944 31,825 257 414 1216
2021-12-01 20:14:51 GMT 51.956406 2.888412 32,400 257 414 1408
2021-12-01 20:14:48 GMT 51.957886 2.898664 32,350 257 414 1472
2021-12-01 20:14:46 GMT 51.958584 2.903451 32,300 257 414 1536
2021-12-01 20:14:43 GMT 51.959793 2.911691 32,250 258 414 1408
2021-12-01 20:14:41 GMT 51.960388 2.916107 32,175 258 414 1408
2021-12-01 20:14:39 GMT 51.961441 2.923355 32,125 258 414 1408
2021-12-01 20:14:36 GMT 51.962727 2.932408 32,050 258 413 1280
2021-12-01 20:14:33 GMT 51.964005 2.941513 32,025 258 413 1216
2021-12-01 20:14:31 GMT 51.964828 2.947311 31,925 258 413 1216
2021-12-01 20:14:28 GMT 51.966202 2.956924 31,925 258 413 1216
2021-12-01 20:14:26 GMT 51.967148 2.963484 31,875 258 413 1216
2021-12-01 20:14:23 GMT 51.968674 2.974014 31,800 258 413 1024
2021-12-01 20:14:20 GMT 51.969498 2.980042 31,650 258 412 1024
2021-12-01 20:14:17 GMT 51.970779 2.989066 31,725 258 412 1024
2021-12-01 20:14:15 GMT 51.972061 2.998047 31,675 258 411 1024
2021-12-01 20:14:12 GMT 51.972931 3.004074 31,650 258 411 1024
2021-12-01 20:14:09 GMT 51.974442 3.014832 31,575 258 410 1088
2021-12-01 20:14:06 GMT 51.975574 3.022574 31,500 258 410 1152
2021-12-01 20:14:03 GMT 51.978413 3.042899 31,450 258 409 1152
2021-12-01 20:14:00 GMT 51.979523 3.050690 31,050 258 409 1216
2021-12-01 20:13:57 GMT 51.979523 3.050690 31,375 258 409 1216
2021-12-01 20:13:55 GMT 51.980392 3.056641 31,325 258 408 1152
2021-12-01 20:13:52 GMT 51.981400 3.063736 31,275 258 409 1216
2021-12-01 20:13:49 GMT 51.983231 3.076859 31,200 258 408 1088
2021-12-01 20:13:46 GMT 51.983997 3.082214 31,175 258 408 1024
2021-12-01 20:13:43 GMT 51.986938 3.103027 31,100 258 405 1088
2021-12-01 20:13:40 GMT 51.986938 3.103027 30,975 258 405 1088
2021-12-01 20:13:37 GMT 51.987862 3.109523 31,025 258 405 960
2021-12-01 20:13:35 GMT 51.988907 3.117218 30,975 258 405 1088
2021-12-01 20:13:32 GMT 51.989777 3.123093 30,900 258 404 1280
2021-12-01 20:13:29 GMT 51.991608 3.136063 30,625 258 403 1600
2021-12-01 20:13:26 GMT 51.992569 3.143158 30,775 258 403 1408
2021-12-01 20:13:23 GMT 51.993820 3.151978 30,700 258 403 1472
2021-12-01 20:13:20 GMT 51.995087 3.160782 30,600 258 403 1536
2021-12-01 20:13:17 GMT 51.995964 3.167201 30,575 258 403 1600
2021-12-01 20:13:15 GMT 51.997192 3.176041 30,075 258 403 1600
2021-12-01 20:13:12 GMT 51.999023 3.189011 30,325 258 402 1536
2021-12-01 20:13:10 GMT 51.999023 3.189011 30,350 258 402 1408
2021-12-01 20:13:07 GMT 52.000168 3.197250 30,275 258 402 1344
2021-12-01 20:13:05 GMT 52.000759 3.201338 30,300 258 402 1216
2021-12-01 20:13:03 GMT 52.002064 3.210754 30,225 258 401 1088
2021-12-01 20:13:01 GMT 52.002712 3.215463 30,175 258 401 1088
2021-12-01 20:12:58 GMT 52.005367 3.234140 30,000 258 401 1024
2021-12-01 20:12:55 GMT 52.005367 3.234140 30,100 258 400 1024
2021-12-01 20:12:52 GMT 52.006256 3.240585 29,975 258 398 1152
2021-12-01 20:12:50 GMT 52.007648 3.250541 29,975 258 398 1216
2021-12-01 20:12:47 GMT 52.008438 3.256348 29,950 258 398 1216
2021-12-01 20:12:44 GMT 52.009506 3.263855 29,900 258 398 1216
2021-12-01 20:12:42 GMT 52.010330 3.269730 29,850 258 397 1152
2021-12-01 20:12:40 GMT 52.010971 3.274384 29,825 258 397 1088
2021-12-01 20:12:37 GMT 52.013535 3.292923 29,725 258 396 960
2021-12-01 20:12:34 GMT 52.013535 3.292923 29,725 258 396 960
2021-12-01 20:12:32 GMT 52.014259 3.298096 29,675 258 394 960
2021-12-01 20:12:30 GMT 52.015320 3.305664 29,625 258 395 960
2021-12-01 20:12:27 GMT 52.016495 3.314261 29,600 258 394 960
2021-12-01 20:12:24 GMT 52.017609 3.322344 29,550 258 393 960
2021-12-01 20:12:22 GMT 52.018478 3.328629 29,525 258 393 960
2021-12-01 20:12:20 GMT 52.019440 3.335495 29,475 258 391 960
2021-12-01 20:12:17 GMT 52.020859 3.345871 29,425 258 391 896
2021-12-01 20:12:14 GMT 52.021637 3.351517 29,400 258 389 896
2021-12-01 20:12:12 GMT 52.022278 3.356094 29,375 258 389 832
2021-12-01 20:12:09 GMT 52.023754 3.366839 29,300 258 386 1088
2021-12-01 20:12:06 GMT 52.024685 3.373666 29,275 258 386 1216
2021-12-01 20:12:04 GMT 52.026222 3.384888 29,100 258 384 1664
2021-12-01 20:12:02 GMT 52.026222 3.384888 29,150 258 385 1664
2021-12-01 20:11:59 GMT 52.027618 3.395011 29,000 258 384 1664
2021-12-01 20:11:56 GMT 52.028877 3.404035 29,000 258 384 1536
2021-12-01 20:11:53 GMT 52.029480 3.408508 28,975 258 384 1472
2021-12-01 20:11:51 GMT 52.030518 3.415833 28,925 258 384 1344
2021-12-01 20:11:49 GMT 52.031483 3.423104 28,750 258 383 1216
2021-12-01 20:11:46 GMT 52.032600 3.430952 28,750 258 382 1216
2021-12-01 20:11:43 GMT 52.033585 3.438263 28,750 258 382 1216
2021-12-01 20:11:41 GMT 52.034775 3.447189 28,675 258 382 1280
2021-12-01 20:11:38 GMT 52.035553 3.452759 28,575 258 381 1344
2021-12-01 20:11:35 GMT 52.036697 3.461086 28,525 258 379 1408
2021-12-01 20:11:33 GMT 52.037247 3.464966 28,525 258 379 1408
2021-12-01 20:11:31 GMT 52.038300 3.472748 28,475 258 379 1472
2021-12-01 20:11:29 GMT 52.038979 3.477722 28,425 258 378 1472
2021-12-01 20:11:26 GMT 52.039909 3.484392 28,375 258 378 1664
2021-12-01 20:11:24 GMT 52.042099 3.500519 28,275 258 378 1536
2021-12-01 20:11:21 GMT 52.042099 3.500519 28,225 258 378 1600
2021-12-01 20:11:18 GMT 52.043354 3.509896 28,025 258 378 1664
2021-12-01 20:11:15 GMT 52.044285 3.516567 28,050 258 378 1664
2021-12-01 20:11:12 GMT 52.045258 3.523712 28,000 258 378 1600
2021-12-01 20:11:10 GMT 52.045914 3.528730 27,875 258 376 1408
2021-12-01 20:11:07 GMT 52.047310 3.538618 27,850 258 377 1472
2021-12-01 20:11:04 GMT 52.048195 3.545288 27,775 258 376 1408
2021-12-01 20:11:02 GMT 52.049080 3.551880 27,700 258 376 1408
2021-12-01 20:10:58 GMT 52.050797 3.564529 27,550 258 374 1408
2021-12-01 20:10:55 GMT 52.051849 3.572235 27,575 258 374 1408
2021-12-01 20:10:53 GMT 52.052582 3.577728 27,450 258 374 1472
2021-12-01 20:10:50 GMT 52.053680 3.585358 27,375 255 373 1728
2021-12-01 20:10:47 GMT 52.054760 3.592451 27,325 255 374 1792
2021-12-01 20:10:44 GMT 52.056564 3.602676 27,275 253 374 1856
2021-12-01 20:10:41 GMT 52.058392 3.611755 27,175 252 375 1856
2021-12-01 20:10:37 GMT 52.060532 3.621172 27,050 249 375 1664
2021-12-01 20:10:34 GMT 52.061836 3.626430 27,000 248 375 1600
2021-12-01 20:10:32 GMT 52.063339 3.632126 26,950 247 375 1600
2021-12-01 20:10:30 GMT 52.064907 3.637809 26,900 246 376 1600
2021-12-01 20:10:28 GMT 52.067184 3.645401 26,825 243 376 1600
2021-12-01 20:10:25 GMT 52.068913 3.650914 26,625 239 376 1856
2021-12-01 20:10:22 GMT 52.073425 3.663627 26,675 240 376 1792
2021-12-01 20:10:20 GMT 52.073425 3.663627 26,575 238 377 1920
2021-12-01 20:10:17 GMT 52.076778 3.672259 26,500 237 377 1920
2021-12-01 20:10:14 GMT 52.078491 3.676453 26,375 236 377 1984
2021-12-01 20:10:11 GMT 52.081944 3.684344 26,350 235 378 1920
2021-12-01 20:10:08 GMT 52.085403 3.692093 26,200 234 377 1856
2021-12-01 20:10:05 GMT 52.088089 3.698077 26,075 234 377 1792
2021-12-01 20:10:02 GMT 52.090977 3.704433 26,075 234 377 1792
2021-12-01 20:10:00 GMT 52.096893 3.717728 25,950 234 376 1728
2021-12-01 20:09:57 GMT 52.096893 3.717728 25,800 234 375 1728
2021-12-01 20:09:54 GMT 52.098953 3.722229 25,800 234 376 1728
2021-12-01 20:09:52 GMT 52.103268 3.731820 25,750 234 375 1792
2021-12-01 20:09:47 GMT 52.106945 3.739982 25,600 234 374 1920
2021-12-01 20:09:44 GMT 52.109161 3.744965 25,525 234 373 1984
2021-12-01 20:09:42 GMT 52.113834 3.755362 25,425 234 373 1984
2021-12-01 20:09:40 GMT 52.113834 3.755362 25,350 234 373 1984
2021-12-01 20:09:37 GMT 52.116486 3.761292 25,250 234 372 1984
2021-12-01 20:09:34 GMT 52.121933 3.773490 25,200 234 372 1920
2021-12-01 20:09:32 GMT 52.121933 3.773490 25,125 234 372 1856
2021-12-01 20:09:30 GMT 52.123764 3.777542 25,100 234 372 1856
2021-12-01 20:09:27 GMT 52.127426 3.785629 24,950 234 370 1792
2021-12-01 20:09:24 GMT 52.129616 3.790597 24,900 234 370 1792
2021-12-01 20:09:22 GMT 52.131618 3.795070 24,825 234 370 1856
2021-12-01 20:09:20 GMT 52.135666 3.804095 24,775 234 370 1920
2021-12-01 20:09:18 GMT 52.135666 3.804095 24,675 235 369 1984
2021-12-01 20:09:15 GMT 52.139252 3.812177 24,550 234 367 1984
2021-12-01 20:09:12 GMT 52.142090 3.818455 24,500 234 368 1984
2021-12-01 20:09:10 GMT 52.143673 3.821987 24,425 234 367 1920
2021-12-01 20:09:07 GMT 52.147259 3.830069 24,300 234 367 1984
2021-12-01 20:09:04 GMT 52.149857 3.835831 24,250 234 367 1920
2021-12-01 20:09:02 GMT 52.152283 3.841171 24,175 234 367 1920
2021-12-01 20:08:59 GMT 52.154057 3.845215 24,050 235 365 1920
2021-12-01 20:08:56 GMT 52.157639 3.853219 23,775 235 364 1984
2021-12-01 20:08:53 GMT 52.160805 3.860282 23,900 235 365 1920
2021-12-01 20:08:51 GMT 52.162216 3.863449 23,850 235 364 1984
2021-12-01 20:08:49 GMT 52.164761 3.869149 23,650 235 364 1984
2021-12-01 20:08:46 GMT 52.167709 3.875809 23,675 235 364 1984
2021-12-01 20:08:43 GMT 52.170673 3.882490 23,600 235 363 1984
2021-12-01 20:08:40 GMT 52.176960 3.896615 23,425 235 363 1984
2021-12-01 20:08:37 GMT 52.176960 3.896615 23,300 235 361 1984
2021-12-01 20:08:34 GMT 52.179520 3.902283 23,300 235 361 1984
2021-12-01 20:08:31 GMT 52.181854 3.907623 23,100 235 361 2048
2021-12-01 20:08:29 GMT 52.184826 3.914193 23,100 235 360 2048
2021-12-01 20:08:26 GMT 52.188316 3.922119 23,000 235 360 2112
2021-12-01 20:08:23 GMT 52.189682 3.925171 22,875 235 360 2176
2021-12-01 20:08:21 GMT 52.191650 3.929520 22,800 235 359 2240
2021-12-01 20:08:19 GMT 52.193985 3.934784 22,800 235 359 2240
2021-12-01 20:08:16 GMT 52.199257 3.946603 22,600 235 359 2304
2021-12-01 20:08:13 GMT 52.199257 3.946603 22,500 235 350 2368
2021-12-01 20:08:11 GMT 52.201584 3.951861 22,425 235 359 2304
2021-12-01 20:08:09 GMT 52.203541 3.956255 22,350 235 359 2176
2021-12-01 20:08:06 GMT 52.209183 3.968887 22,150 235 359 2112
2021-12-01 20:08:03 GMT 52.209183 3.968887 22,175 234 358 2048
2021-12-01 20:08:01 GMT 52.212479 3.976345 22,075 235 358 1984
2021-12-01 20:07:58 GMT 52.214432 3.980661 22,025 235 358 1920
2021-12-01 20:07:56 GMT 52.216919 3.986359 21,900 235 356 1792
2021-12-01 20:07:53 GMT 52.219254 3.991547 21,825 235 355 1856
2021-12-01 20:07:51 GMT 52.221371 3.996355 21,800 235 355 1856
2021-12-01 20:07:49 GMT 52.223278 4.000671 21,700 235 353 2176
2021-12-01 20:07:47 GMT 52.225754 4.006271 21,600 235 353 2112
2021-12-01 20:07:44 GMT 52.228455 4.012299 21,500 235 352 2304
2021-12-01 20:07:41 GMT 52.233566 4.023821 21,425 235 351 2304
2021-12-01 20:07:39 GMT 52.233566 4.023821 21,300 235 351 2368
2021-12-01 20:07:36 GMT 52.235104 4.027274 21,200 235 351 2368
2021-12-01 20:07:33 GMT 52.239120 4.036255 21,100 235 350 2368
2021-12-01 20:07:30 GMT 52.241364 4.041443 20,925 235 350 2304
2021-12-01 20:07:27 GMT 52.243652 4.046555 20,875 235 350 2048
2021-12-01 20:07:24 GMT 52.246880 4.053798 20,750 235 349 1920
2021-12-01 20:07:21 GMT 52.249905 4.060625 20,700 235 348 1856
2021-12-01 20:07:18 GMT 52.251816 4.064863 20,600 235 348 1920
2021-12-01 20:07:16 GMT 52.254639 4.071198 20,525 235 346 2112
2021-12-01 20:07:13 GMT 52.257401 4.077576 20,300 235 344 2304
2021-12-01 20:07:10 GMT 52.262466 4.088974 20,250 235 343 2304
2021-12-01 20:07:07 GMT 52.262466 4.088974 20,250 235 343 2304
2021-12-01 20:07:03 GMT 52.267456 4.100255 20,050 235 342 2176
2021-12-01 20:07:00 GMT 52.270203 4.106522 20,000 235 342 2176
2021-12-01 20:06:57 GMT 52.274277 4.115753 19,775 235 341 2048
2021-12-01 20:06:54 GMT 52.274277 4.115753 19,625 235 337 2240
2021-12-01 20:06:51 GMT 52.277573 4.123154 19,675 235 338 2112
2021-12-01 20:06:49 GMT 52.280678 4.130232 19,450 235 338 2240
2021-12-01 20:06:46 GMT 52.285053 4.140119 19,425 235 337 2240
2021-12-01 20:06:43 GMT 52.285053 4.140119 19,350 235 336 2240
2021-12-01 20:06:40 GMT 52.289429 4.149929 19,225 235 336 2240
2021-12-01 20:06:38 GMT 52.289429 4.149929 19,075 235 335 2240
2021-12-01 20:06:36 GMT 52.291199 4.154088 19,050 235 335 2176
2021-12-01 20:06:33 GMT 52.294281 4.161072 18,975 235 334 2176
2021-12-01 20:06:30 GMT 52.296799 4.166794 18,900 235 334 2176
2021-12-01 20:06:28 GMT 52.298584 4.170837 18,675 235 333 2112
2021-12-01 20:06:25 GMT 52.301300 4.177002 18,675 235 331 2112
2021-12-01 20:06:22 GMT 52.303440 4.181867 18,600 235 331 2112
2021-12-01 20:06:20 GMT 52.306091 4.187927 18,475 235 330 2176
2021-12-01 20:06:17 GMT 52.310715 4.198456 18,400 235 330 2240
2021-12-01 20:06:15 GMT 52.310715 4.198456 18,325 235 328 2240
2021-12-01 20:06:12 GMT 52.312134 4.201660 18,225 235 328 2304
2021-12-01 20:06:10 GMT 52.314426 4.206900 18,175 235 328 2432
2021-12-01 20:06:07 GMT 52.319035 4.217337 18,050 235 327 2624
2021-12-01 20:06:05 GMT 52.319035 4.217337 17,875 235 327 2688
2021-12-01 20:06:02 GMT 52.322021 4.224091 17,800 235 326 2688
2021-12-01 20:05:59 GMT 52.323441 4.227295 17,725 235 326 2688
2021-12-01 20:05:57 GMT 52.328205 4.238133 17,575 235 326 2624
2021-12-01 20:05:55 GMT 52.328205 4.238133 17,450 235 326 2688
2021-12-01 20:05:52 GMT 52.329975 4.242135 17,275 235 325 2752
2021-12-01 20:05:50 GMT 52.331909 4.246521 17,275 235 325 2816
2021-12-01 20:05:48 GMT 52.334538 4.252494 17,175 235 325 2752
2021-12-01 20:05:45 GMT 52.336960 4.258065 17,000 235 325 2688
2021-12-01 20:05:42 GMT 52.338730 4.261989 16,900 235 325 2688
2021-12-01 20:05:40 GMT 52.340820 4.266776 16,825 235 324 2624
2021-12-01 20:05:38 GMT 52.342220 4.269993 16,675 235 323 2560
2021-12-01 20:05:35 GMT 52.345917 4.278336 16,500 235 323 2432
2021-12-01 20:05:32 GMT 52.347805 4.282706 16,500 235 323 2432
2021-12-01 20:05:30 GMT 52.350597 4.288984 16,350 235 321 2432
2021-12-01 20:05:27 GMT 52.352692 4.293771 16,275 235 321 2432
2021-12-01 20:05:24 GMT 52.354935 4.298859 16,175 235 320 2432
2021-12-01 20:05:21 GMT 52.360283 4.311035 15,975 235 319 2496
2021-12-01 20:05:18 GMT 52.362854 4.316864 15,875 235 318 2496
2021-12-01 20:05:15 GMT 52.362854 4.316864 15,750 235 318 2496
2021-12-01 20:05:12 GMT 52.365234 4.322357 15,675 235 317 2496
2021-12-01 20:05:09 GMT 52.368301 4.329300 15,525 235 311 2560
2021-12-01 20:05:05 GMT 52.371548 4.336696 15,325 235 311 2560
2021-12-01 20:05:02 GMT 52.373703 4.341736 15,075 235 312 2496
2021-12-01 20:05:00 GMT 52.375397 4.345551 15,175 235 313 2496
2021-12-01 20:04:57 GMT 52.378250 4.352077 15,000 235 311 2560
2021-12-01 20:04:54 GMT 52.379601 4.355137 14,900 235 311 2496
2021-12-01 20:04:52 GMT 52.382080 4.360886 14,825 235 309 2560
2021-12-01 20:04:50 GMT 52.385929 4.369655 14,700 235 308 2624
2021-12-01 20:04:47 GMT 52.385929 4.369655 14,550 235 308 2688
2021-12-01 20:04:44 GMT 52.390366 4.379883 14,475 235 306 2688
2021-12-01 20:04:42 GMT 52.390366 4.379883 14,375 235 306 2688
2021-12-01 20:04:40 GMT 52.392014 4.383621 14,300 235 305 2688
2021-12-01 20:04:38 GMT 52.393661 4.387360 14,150 235 304 2624
2021-12-01 20:04:35 GMT 52.398834 4.399338 14,025 235 302 2688
2021-12-01 20:04:32 GMT 52.398834 4.399338 13,950 235 301 2752
2021-12-01 20:04:30 GMT 52.401245 4.404968 13,525 235 300 2880
2021-12-01 20:04:25 GMT 52.406525 4.417191 13,550 235 299 2880
2021-12-01 20:04:22 GMT 52.406525 4.417191 13,475 235 299 2880
2021-12-01 20:04:19 GMT 52.409252 4.423410 13,275 235 298 2816
2021-12-01 20:04:16 GMT 52.411816 4.429295 13,150 235 297 2816
2021-12-01 20:04:13 GMT 52.413677 4.433690 13,075 235 297 2880
2021-12-01 20:04:10 GMT 52.416191 4.439575 12,925 235 295 3008
2021-12-01 20:04:08 GMT 52.417603 4.442902 12,750 236 295 3200
2021-12-01 20:04:05 GMT 52.419479 4.447250 12,625 235 294 3328
2021-12-01 20:04:02 GMT 52.422318 4.453812 12,250 236 293 3456
2021-12-01 20:03:59 GMT 52.424149 4.458160 12,250 236 293 3456
2021-12-01 20:03:57 GMT 52.426346 4.463272 11,875 236 293 3392
2021-12-01 20:03:54 GMT 52.430328 4.472809 11,950 236 294 3200
2021-12-01 20:03:51 GMT 52.430328 4.472809 11,675 236 292 2944
2021-12-01 20:03:49 GMT 52.432018 4.476850 11,700 236 292 2944
2021-12-01 20:03:47 GMT 52.433556 4.480460 11,600 236 292 2880
2021-12-01 20:03:44 GMT 52.435696 4.485639 10,925 235 281 1408
2021-12-01 20:03:41 GMT 52.438068 4.491446 11,175 237 289 2496
2021-12-01 20:03:39 GMT 52.439438 4.494705 11,275 237 288 2432
2021-12-01 20:03:37 GMT 52.441097 4.498666 11,050 236 286 2048
2021-12-01 20:03:34 GMT 52.443146 4.503767 11,050 236 286 2048
2021-12-01 20:03:31 GMT 52.445389 4.509048 11,025 236 284 1984
2021-12-01 20:03:29 GMT 52.447056 4.512948 10,850 234 275 2112
2021-12-01 20:03:27 GMT 52.448730 4.516754 10,875 234 277 1536
2021-12-01 20:03:24 GMT 52.451012 4.521894 10,700 235 271 2944
2021-12-01 20:03:21 GMT 52.452988 4.526291 10,750 235 272 2688
2021-12-01 20:03:19 GMT 52.454597 4.529977 10,650 236 271 3008
2021-12-01 20:03:17 GMT 52.457977 4.538498 10,400 239 268 3328
2021-12-01 20:03:14 GMT 52.457977 4.538498 10,350 241 266 3456
2021-12-01 20:03:11 GMT 52.459625 4.543457 10,050 244 265 3520
2021-12-01 20:03:09 GMT 52.461021 4.548104 10,075 248 263 3648
2021-12-01 20:03:07 GMT 52.462234 4.552917 9,900 250 262 3648
2021-12-01 20:03:04 GMT 52.463104 4.556656 9,675 253 260 3712
2021-12-01 20:03:01 GMT 52.464188 4.562308 9,450 257 260 3776
2021-12-01 20:02:59 GMT 52.464931 4.566860 9,300 258 259 3776
2021-12-01 20:02:57 GMT 52.465351 4.569920 9,275 260 258 3840
2021-12-01 20:02:54 GMT 52.466049 4.576041 9,125 263 258 3776
2021-12-01 20:02:51 GMT 52.466492 4.581909 8,950 266 256 3520
2021-12-01 20:02:49 GMT 52.466652 4.586164 8,675 269 255 3392
2021-12-01 20:02:47 GMT 52.466793 4.590794 8,700 269 256 3456
2021-12-01 20:02:44 GMT 52.466885 4.595424 8,450 269 255 3328
2021-12-01 20:02:41 GMT 52.466980 4.600839 8,400 269 255 3200
2021-12-01 20:02:39 GMT 52.467041 4.605865 8,300 268 254 3264
2021-12-01 20:02:37 GMT 52.467167 4.610020 8,125 268 253 3264
2021-12-01 20:02:34 GMT 52.467316 4.615784 7,875 268 251 3264
2021-12-01 20:02:31 GMT 52.467453 4.620361 7,750 269 251 3264
2021-12-01 20:02:29 GMT 52.467499 4.624176 7,775 269 250 3328
2021-12-01 20:02:27 GMT 52.467537 4.628305 7,575 271 248 3456
2021-12-01 20:02:24 GMT 52.467491 4.633562 6,275 307 239 4480
2021-12-01 20:02:21 GMT 52.467167 4.639526 7,225 284 243 3968
2021-12-01 20:02:19 GMT 52.466702 4.643842 7,150 282 243 3904
2021-12-01 20:02:14 GMT 52.465210 4.652318 6,750 292 240 4032
2021-12-01 20:02:11 GMT 52.463928 4.657364 6,600 297 239 4160
2021-12-01 20:02:09 GMT 52.462921 4.660568 6,475 300 239 4288
2021-12-01 20:02:07 GMT 52.460415 4.666992 6,275 304 239 4352
2021-12-01 20:02:04 GMT 52.460415 4.666992 5,975 308 239 4288
2021-12-01 20:02:01 GMT 52.457993 4.672171 5,900 311 241 3520
2021-12-01 20:01:58 GMT 52.453125 4.681091 5,725 312 240 3136
2021-12-01 20:01:54 GMT 52.450516 4.686050 5,525 312 238 3072
2021-12-01 20:01:51 GMT 52.450516 4.686050 5,375 310 237 2944
2021-12-01 20:01:48 GMT 52.447540 4.692154 5,225 309 235 2688
2021-12-01 20:01:46 GMT 52.447540 4.692154 5,175 309 235 2624
2021-12-01 20:01:43 GMT 52.445389 4.696579 4,950 311 228 2048
2021-12-01 20:01:40 GMT 52.443378 4.700657 4,900 314 224 1920
2021-12-01 20:01:37 GMT 52.441544 4.703903 4,850 318 221 1728
2021-12-01 20:01:34 GMT 52.438843 4.708023 4,775 325 215 1536
2021-12-01 20:01:31 GMT 52.434345 4.712742 4,675 332 211 1728
2021-12-01 20:01:28 GMT 52.434345 4.712742 4,575 339 206 1920
2021-12-01 20:01:26 GMT 52.429550 4.715652 4,450 345 203 2176
2021-12-01 20:01:23 GMT 52.429550 4.715652 4,450 345 203 2176
2021-12-01 20:01:20 GMT 52.426434 4.716588 4,325 355 198 2944
2021-12-01 20:01:17 GMT 52.421127 4.716873 3,850 3 199 3648
2021-12-01 20:01:14 GMT 52.421127 4.716873 3,975 2 198 3712
2021-12-01 20:01:10 GMT 52.417633 4.716588 3,300 4 197 3648
2021-12-01 20:01:07 GMT 52.414169 4.716187 3,475 4 198 3712
2021-12-01 20:01:04 GMT 52.412140 4.715960 3,300 4 197 3712
2021-12-01 20:01:00 GMT 52.408310 4.715500 3,125 4 196 3520
2021-12-01 20:00:58 GMT 52.406693 4.715332 2,950 4 195 3456
2021-12-01 20:00:55 GMT 52.403595 4.714966 2,825 3 194 3456
2021-12-01 20:00:51 GMT 52.400921 4.714626 2,475 3 193 3328
2021-12-01 20:00:48 GMT 52.397873 4.714355 1,875 1 170 1280
2021-12-01 20:00:44 GMT 52.393982 4.714050 2,225 2 189 2496
2021-12-01 20:00:41 GMT 52.391376 4.713841 2,125 2 188 2112
2021-12-01 20:00:37 GMT 52.388123 4.713669 2,000 1 182 1600
2021-12-01 20:00:35 GMT 52.386429 4.713593 1,975 1 181 1536
2021-12-01 20:00:34 GMT 52.385605 4.713606 1,925 0 178 1216
2021-12-01 20:00:33 GMT 52.384953 4.713527 1,925 0 176 1152
2021-12-01 20:00:31 GMT 52.383324 4.713527 1,875 0 174 1152
2021-12-01 20:00:30 GMT 52.382393 4.713449 1,850 1 170 1280
2021-12-01 20:00:28 GMT 52.380066 4.713440 1,800 0 166 1152
2021-12-01 20:00:25 GMT 52.378994 4.713370 1,775 0 165 1024
2021-12-01 20:00:24 GMT 52.378235 4.713364 1,750 0 164 1024
2021-12-01 20:00:23 GMT 52.377045 4.713364 1,725 0 161 896
2021-12-01 20:00:21 GMT 52.375580 4.713364 1,700 0 158 768
2021-12-01 20:00:18 GMT 52.373688 4.713292 1,675 0 153 512
2021-12-01 20:00:17 GMT 52.372292 4.713292 1,675 1 149 448
2021-12-01 20:00:15 GMT 52.371452 4.713213 1,650 1 147 384
2021-12-01 20:00:13 GMT 52.370152 4.713213 1,650 1 143 320
2021-12-01 20:00:11 GMT 52.368942 4.713135 1,650 2 140 576
2021-12-01 20:00:10 GMT 52.368336 4.713056 1,600 2 137 896
2021-12-01 20:00:09 GMT 52.367077 4.712978 1,600 2 134 1280
2021-12-01 20:00:07 GMT 52.366470 4.712982 1,550 3 132 1728
2021-12-01 20:00:06 GMT 52.365589 4.712899 1,525 3 131 1856
2021-12-01 20:00:05 GMT 52.365234 4.712830 1,475 3 131 1984
2021-12-01 20:00:02 GMT 52.363167 4.712585 1,375 4 131 2560
2021-12-01 20:00:01 GMT 52.362469 4.712507 1,325 4 131 2624
2021-12-01 19:59:59 GMT 52.361492 4.712350 1,250 5 132 2752
2021-12-01 19:59:58 GMT 52.360886 4.712219 1,200 5 132 2816
2021-12-01 19:59:57 GMT 52.359650 4.712067 1,100 5 135 2624
2021-12-01 19:59:55 GMT 52.358917 4.711914 1,050 5 135 2624
2021-12-01 19:59:54 GMT 52.358139 4.711838 1,000 5 136 2688
2021-12-01 19:59:52 GMT 52.357132 4.711685 925 5 137 2560
2021-12-01 19:59:51 GMT 52.355621 4.711456 875 4 138 2560
2021-12-01 19:59:49 GMT 52.355118 4.711380 775 4 139 2752
2021-12-01 19:59:48 GMT 52.354462 4.711330 750 4 141 2752
2021-12-01 19:59:45 GMT 52.353058 4.711151 525 3 131 0
2021-12-01 19:59:42 GMT 52.351063 4.710938 525 3 131 0
2021-12-01 19:59:41 GMT 52.349808 4.710770 475 3 131 0
2021-12-01 19:59:32 GMT 52.343948 4.710236 450 3 123 0
2021-12-01 19:59:30 GMT 52.342850 4.710159 450 3 120 64
2021-12-01 19:59:29 GMT 52.342312 4.710074 450 3 111 0
2021-12-01 19:59:27 GMT 52.340870 4.709996 450 3 101 0
2021-12-01 19:59:25 GMT 52.340496 4.709917 450 3 101 0
2021-12-01 19:59:22 GMT 52.339325 4.709854 450 3 92 0
2021-12-01 19:59:19 GMT 52.337795 4.709682 475 2 80 64
2021-12-01 19:59:14 GMT 52.336262 4.709525 450 2 58 0
2021-12-01 19:59:13 GMT 52.335796 4.709525 450 2 49
2021-12-01 19:59:11 GMT 52.335468 4.709473 0 2 44
2021-12-01 19:59:10 GMT 52.335270 4.709446 0 2 40
2021-12-01 19:59:09 GMT 52.334900 4.709407 0 2 28
2021-12-01 19:59:06 GMT 52.334770 4.709396 0 2 24
2021-12-01 19:59:04 GMT 52.334587 4.709377 0 2 16
2021-12-01 19:59:03 GMT 52.334492 4.709368 0 2 14
2021-12-01 19:58:52 GMT 52.334026 4.709377 0 337 8
2021-12-01 19:58:42 GMT 52.333748 4.709721 0 306 12
2021-12-01 19:58:35 GMT 52.333385 4.710426 0 312 20
2021-12-01 19:58:30 GMT 52.333157 4.710846 0 312 22
2021-12-01 19:58:21 GMT 52.332436 4.712200 0 312 30
2021-12-01 19:58:15 GMT 52.331875 4.713233 0 312 30
2021-12-01 19:58:12 GMT 52.331512 4.713900 0 312 30
2021-12-01 19:58:02 GMT 52.330673 4.715469 0 312 29
2021-12-01 19:57:52 GMT 52.329792 4.717102 0 312 29
2021-12-01 19:57:46 GMT 52.329300 4.717999 0 312 29
2021-12-01 19:57:42 GMT 52.328865 4.718742 0 312 29
2021-12-01 19:57:32 GMT 52.328381 4.720707 0 270 29
2021-12-01 19:57:21 GMT 52.328064 4.722919 0 312 20
2021-12-01 19:57:11 GMT 52.327625 4.723709 0 312 17
2021-12-01 19:57:01 GMT 52.327148 4.724579 0 312 16
2021-12-01 19:56:50 GMT 52.326645 4.725456 0 317 15
2021-12-01 19:56:40 GMT 52.326054 4.726299 0 320 19
2021-12-01 19:56:30 GMT 52.325317 4.727345 0 320 24
2021-12-01 19:56:21 GMT 52.324539 4.728418 0 317 24
2021-12-01 19:56:12 GMT 52.323830 4.729418 0 320 23
2021-12-01 19:56:10 GMT 52.323681 4.729633 0 320 23
2021-12-01 19:56:00 GMT 52.322914 4.730721 0 320 23
2021-12-01 19:55:58 GMT 52.322739 4.730968 0 320 23
2021-12-01 19:55:54 GMT 52.322388 4.731458 0 320 23
2021-12-01 19:55:51 GMT 52.321976 4.732037 0 317 22
2021-12-01 19:55:41 GMT 52.321449 4.732780 0 320 18
2021-12-01 19:55:31 GMT 52.320911 4.733601 0 306 14
2021-12-01 19:55:28 GMT 52.320843 4.733753 0 300 13
2021-12-01 19:55:19 GMT 52.320648 4.734459 0 284 9
2021-12-01 19:55:10 GMT 52.320591 4.734955 0 275 7
2021-12-01 19:55:03 GMT 52.320572 4.735323 0 272 8
2021-12-01 19:55:00 GMT 52.320560 4.735500 0 272 8
2021-12-01 19:54:57 GMT 52.320557 4.735661 0 272 9
2021-12-01 19:54:52 GMT 52.320549 4.736029 0 272 10
2021-12-01 19:54:48 GMT 52.320545 4.736309 0 272 10
2021-12-01 19:54:37 GMT 52.320499 4.737530 0 272 20
2021-12-01 19:54:32 GMT 52.320480 4.738325 0 272 20
2021-12-01 19:54:29 GMT 52.320454 4.738827 0 272 19
2021-12-01 19:54:20 GMT 52.320408 4.739973 0 272 18
2021-12-01 19:54:13 GMT 52.320385 4.740797 0 272 15
2021-12-01 19:54:10 GMT 52.320374 4.741150 0 272 13
2021-12-01 19:54:07 GMT 52.320374 4.741405 0 272 11
2021-12-01 19:54:00 GMT 52.320351 4.741859 0 272 8
2021-12-01 19:53:50 GMT 52.320328 4.742425 0 281 9
2021-12-01 19:53:43 GMT 52.320236 4.742857 0 303 10
2021-12-01 19:53:40 GMT 52.320156 4.743042 0 320 10
2021-12-01 19:53:36 GMT 52.320061 4.743190 0 334 9
2021-12-01 19:53:29 GMT 52.319805 4.743328 0 357 9
2021-12-01 19:53:27 GMT 52.319733 4.743328 0 0 9
2021-12-01 19:53:22 GMT 52.319527 4.743328 0 2 8
2021-12-01 19:53:17 GMT 52.319344 4.743328 0 2 9
2021-12-01 19:53:12 GMT 52.319153 4.743308 0 5 8
2021-12-01 19:53:07 GMT 52.318943 4.743269 0 2 8
2021-12-01 19:53:02 GMT 52.318771 4.743252 0 2 11
2021-12-01 19:52:59 GMT 52.318645 4.743233 0 5 13
2021-12-01 19:52:55 GMT 52.318417 4.743214 0 5 16
2021-12-01 19:52:49 GMT 52.317879 4.743156 0 2 17
2021-12-01 19:52:47 GMT 52.317734 4.743131 0 2 17
2021-12-01 19:52:38 GMT 52.317070 4.743092 0 2 15
2021-12-01 19:52:36 GMT 52.316975 4.743080 0 2 15
2021-12-01 19:52:31 GMT 52.316360 4.743014 0 5 15
2021-12-01 19:52:27 GMT 52.316360 4.743014 0 2 14
2021-12-01 19:52:21 GMT 52.316010 4.742974 0 2 14
2021-12-01 19:52:17 GMT 52.315750 4.742947 0 2 14
2021-12-01 19:52:13 GMT 52.315533 4.742928 0 2 14
2021-12-01 19:52:08 GMT 52.315201 4.742889 0 2 15
2021-12-01 19:52:02 GMT 52.314766 4.742876 0 2 15
2021-12-01 19:51:58 GMT 52.314510 4.742857 0 2 15
2021-12-01 19:51:56 GMT 52.314411 4.742851 0 2 15
2021-12-01 19:51:48 GMT 52.313862 4.742794 0 2 14
2021-12-01 19:51:44 GMT 52.313530 4.742778 0 2 16
2021-12-01 19:51:36 GMT 52.313053 4.742719 0 2 16
2021-12-01 19:51:32 GMT 52.312763 4.742699 0 2 16
2021-12-01 19:51:28 GMT 52.312511 4.742680 0 2 16
2021-12-01 19:51:25 GMT 52.312275 4.742661 0 2 19
2021-12-01 19:51:20 GMT 52.311779 4.742603 0 2 22
2021-12-01 19:51:17 GMT 52.311573 4.742584 0 2 22
2021-12-01 19:51:14 GMT 52.311207 4.742546 0 2 22
2021-12-01 19:51:11 GMT 52.310841 4.742527 0 2 22
2021-12-01 19:51:08 GMT 52.310551 4.742504 0 2 22
2021-12-01 19:51:01 GMT 52.309788 4.742432 0 2 23
2021-12-01 19:50:58 GMT 52.309536 4.742393 0 2 23
2021-12-01 19:50:48 GMT 52.308491 4.742307 0 2 23
2021-12-01 19:50:45 GMT 52.308189 4.742288 0 2 24
2021-12-01 19:50:38 GMT 52.307362 4.742209 0 2 24
2021-12-01 19:50:35 GMT 52.307014 4.742170 0 2 24
2021-12-01 19:50:28 GMT 52.306271 4.742092 0 2 24
2021-12-01 19:50:21 GMT 52.305607 4.742033 0 2 24
2021-12-01 19:50:17 GMT 52.305107 4.741974 0 2 23
2021-12-01 19:50:14 GMT 52.304886 4.741954 0 2 23
2021-12-01 19:50:07 GMT 52.304173 4.741954 0 345 21
2021-12-01 19:50:05 GMT 52.303951 4.742052 0 337 20
2021-12-01 19:49:59 GMT 52.303535 4.742504 0 315 19
2021-12-01 19:49:56 GMT 52.303383 4.742739 0 312 20
2021-12-01 19:49:54 GMT 52.303219 4.743061 0 309 24
2021-12-01 19:49:50 GMT 52.302895 4.743681 0 312 28
2021-12-01 19:49:47 GMT 52.302650 4.744112 0 312 28
2021-12-01 19:49:43 GMT 52.302223 4.744911 0 312 28
2021-12-01 19:49:36 GMT 52.301708 4.745898 0 312 29
2021-12-01 19:49:33 GMT 52.301434 4.746380 0 312 28
2021-12-01 19:49:26 GMT 52.300850 4.747467 0 312 28

Making use of Plane Finder data

You are free to use the raw flight data, aircraft information and images provided in this report for your own purposes provided the data is correctly attributed to Plane Finder. We ask that you please credit Plane Finder and link to planefinder.net in close proximity to the content.

Optionally one of the following logos (no smaller then 150x24px) can be used and must link to planefinder.net

Embedding the Plane Finder map

You are welcome to embed the Plane Finder playback map on your website to offer visitors a more interactive experience. We suggest using the following HTML code:

<iframe src="//planefinder.net/data/report/KL1715-PH-NXD-7700-squawk-2021-12-01/map" width="800" height="600" seamless="seamless"></iframe>

Where our data comes from

Plane Finder has a global network of data feeds and antenna radars that receive data broadcast directly from aircraft. The primary technologies used are ADS-B and MLAT. We also show feeds from the FAA and a FLARM glider feed.

Click here to find out more about the Plane Finder network.

How we collect our data